Time,TemperatureF,DewpointF,PressureIn,WindDirection,WindDirectionDegrees,WindSpeedMPH,WindSpeedGustMPH,Humidity,HourlyPrecipIn,Conditions,Clouds,dailyrainin,SoftwareType,DateUTC
2013-07-04 00:01:00,68.7,55.5,30.04,SW,225,0.0,0.0,64,0.00,,,0.00,WUHU215HW,2013-07-04 05:01:00,
2013-07-04 00:02:00,68.7,56.0,30.04,SW,225,0.0,0.0,64,0.00,,,0.00,WUHU215HW,2013-07-04 05:02:00,
2013-07-04 00:03:00,68.7,56.0,30.04,SW,225,0.0,0.0,64,0.00,,,0.00,WUHU215HW,2013-07-04 05:03:00,
2013-07-04 00:05:00,68.7,56.0,30.04,North,0,0.0,0.0,64,0.00,,,0.00,WUHU215HW,2013-07-04 05:05:00,
2013-07-04 00:07:00,68.5,55.8,30.04,SSW,203,0.0,0.0,64,0.00,,,0.00,WUHU215HW,2013-07-04 05:07:00,
2013-07-04 00:08:00,68.5,55.8,30.04,SSW,203,0.0,0.0,64,0.00,,,0.00,WUHU215HW,2013-07-04 05:08:00,
2013-07-04 00:09:00,68.7,56.0,30.04,WSW,248,0.0,0.0,64,0.00,,,0.00,WUHU215HW,2013-07-04 05:09:00,
2013-07-04 00:10:00,68.7,56.0,30.04,WSW,248,0.0,0.0,64,0.00,,,0.00,WUHU215HW,2013-07-04 05:10:00,
2013-07-04 00:13:00,68.7,56.0,30.04,WSW,248,0.0,0.0,64,0.00,,,0.00,WUHU215HW,2013-07-04 05:13:00,
2013-07-04 00:14:00,68.7,56.0,30.04,WSW,248,0.0,0.0,64,0.00,,,0.00,WUHU215HW,2013-07-04 05:14:00,
2013-07-04 00:15:00,68.7,56.0,30.04,WSW,248,0.0,0.0,64,0.00,,,0.00,WUHU215HW,2013-07-04 05:15:00,
2013-07-04 00:16:00,68.7,56.0,30.04,South,180,0.0,0.0,64,0.00,,,0.00,WUHU215HW,2013-07-04 05:16:00,
2013-07-04 00:18:00,68.7,56.0,30.04,SSW,203,0.0,0.0,64,0.00,,,0.00,WUHU215HW,2013-07-04 05:18:00,
2013-07-04 00:21:00,68.7,56.0,30.04,SW,225,0.0,0.0,64,0.00,,,0.00,WUHU215HW,2013-07-04 05:21:00,
2013-07-04 00:23:00,68.7,56.0,30.04,SW,225,0.0,0.0,64,0.00,,,0.00,WUHU215HW,2013-07-04 05:23:00,
2013-07-04 00:24:00,68.7,56.0,30.04,WNW,293,0.0,0.0,64,0.00,,,0.00,WUHU215HW,2013-07-04 05:24:00,
2013-07-04 00:26:00,68.7,56.0,30.04,SSW,203,0.0,0.0,64,0.00,,,0.00,WUHU215HW,2013-07-04 05:26:00,
2013-07-04 00:27:00,68.7,56.0,30.04,SSW,203,0.0,0.0,64,0.00,,,0.00,WUHU215HW,2013-07-04 05:27:00,
2013-07-04 00:28:00,68.7,56.0,30.04,SSW,203,0.0,0.0,64,0.00,,,0.00,WUHU215HW,2013-07-04 05:28:00,
2013-07-04 00:32:00,68.5,56.0,30.04,WNW,293,0.0,0.0,64,0.00,,,0.00,WUHU215HW,2013-07-04 05:32:00,
2013-07-04 00:33:00,68.7,56.0,30.04,WNW,293,0.0,0.0,64,0.00,,,0.00,WUHU215HW,2013-07-04 05:33:00,
2013-07-04 00:35:00,68.5,55.8,30.04,SSE,158,0.0,0.0,64,0.00,,,0.00,WUHU215HW,2013-07-04 05:35:00,
2013-07-04 00:37:00,68.5,55.8,30.04,WSW,248,0.0,0.0,64,0.00,,,0.00,WUHU215HW,2013-07-04 05:37:00,
2013-07-04 00:38:00,68.5,55.8,30.04,WSW,248,0.0,0.0,64,0.00,,,0.00,WUHU215HW,2013-07-04 05:38:00,
2013-07-04 00:41:00,68.5,55.8,30.04,SW,225,0.0,0.0,64,0.00,,,0.00,WUHU215HW,2013-07-04 05:41:00,
2013-07-04 00:43:00,68.5,55.8,30.04,SW,225,0.0,0.0,64,0.00,,,0.00,WUHU215HW,2013-07-04 05:43:00,
2013-07-04 00:45:00,68.5,55.8,30.04,SSW,203,0.0,0.0,64,0.00,,,0.00,WUHU215HW,2013-07-04 05:45:00,
2013-07-04 00:46:00,68.3,55.6,30.04,SSW,203,0.0,0.0,64,0.00,,,0.00,WUHU215HW,2013-07-04 05:46:00,
2013-07-04 00:50:00,68.1,55.4,30.04,WSW,248,0.0,0.0,64,0.00,,,0.00,WUHU215HW,2013-07-04 05:50:00,
2013-07-04 00:51:00,68.1,55.4,30.04,WSW,248,0.0,0.0,64,0.00,,,0.00,WUHU215HW,2013-07-04 05:51:00,
2013-07-04 00:52:00,68.1,55.4,30.04,WSW,248,0.0,0.0,64,0.00,,,0.00,WUHU215HW,2013-07-04 05:52:00,
2013-07-04 00:56:00,68.0,55.3,30.04,SE,135,2.0,2.0,64,0.00,,,0.00,WUHU215HW,2013-07-04 05:56:00,
2013-07-04 00:57:00,68.0,55.3,30.04,SE,135,2.0,2.0,64,0.00,,,0.00,WUHU215HW,2013-07-04 05:57:00,
2013-07-04 00:59:00,67.8,55.1,30.04,SW,225,0.0,2.0,64,0.00,,,0.00,WUHU215HW,2013-07-04 05:59:00,
2013-07-04 01:01:00,67.8,55.1,30.04,SSW,203,0.0,2.0,64,0.00,,,0.00,WUHU215HW,2013-07-04 06:01:00,
2013-07-04 01:02:00,67.8,55.1,30.04,SSW,203,0.0,2.0,64,0.00,,,0.00,WUHU215HW,2013-07-04 06:02:00,
2013-07-04 01:03:00,67.8,55.1,30.04,SSW,203,0.0,2.0,64,0.00,,,0.00,WUHU215HW,2013-07-04 06:03:00,
2013-07-04 01:04:00,67.8,55.1,30.04,SSE,158,0.0,2.0,64,0.00,,,0.00,WUHU215HW,2013-07-04 06:04:00,
2013-07-04 01:07:00,67.6,55.1,30.04,SSE,158,0.0,0.0,64,0.00,,,0.00,WUHU215HW,2013-07-04 06:07:00,
2013-07-04 01:08:00,67.6,55.1,30.04,SSE,158,0.0,0.0,64,0.00,,,0.00,WUHU215HW,2013-07-04 06:08:00,
2013-07-04 01:09:00,67.6,54.9,30.04,SSE,158,0.0,0.0,64,0.00,,,0.00,WUHU215HW,2013-07-04 06:09:00,
2013-07-04 01:13:00,67.6,54.9,30.04,SW,225,3.5,3.5,64,0.00,,,0.00,WUHU215HW,2013-07-04 06:13:00,
2013-07-04 01:15:00,67.6,54.9,30.04,SSE,158,0.0,3.5,64,0.00,,,0.00,WUHU215HW,2013-07-04 06:15:00,
2013-07-04 01:16:00,67.6,54.9,30.04,SSE,158,0.0,3.5,64,0.00,,,0.00,WUHU215HW,2013-07-04 06:16:00,
2013-07-04 01:17:00,67.6,54.9,30.04,SSW,203,0.0,3.5,64,0.00,,,0.00,WUHU215HW,2013-07-04 06:17:00,
2013-07-04 01:19:00,67.6,54.9,30.04,SSE,158,3.3,3.5,64,0.00,,,0.00,WUHU215HW,2013-07-04 06:19:00,
2013-07-04 01:22:00,67.4,54.8,30.04,SSE,158,3.3,3.5,64,0.00,,,0.00,WUHU215HW,2013-07-04 06:22:00,
2013-07-04 01:23:00,67.4,54.8,30.04,SSE,158,3.3,3.3,64,0.00,,,0.00,WUHU215HW,2013-07-04 06:23:00,
2013-07-04 01:26:00,67.2,54.6,30.04,SW,225,0.6,3.3,64,0.00,,,0.00,WUHU215HW,2013-07-04 06:26:00,
2013-07-04 01:28:00,67.2,54.6,30.04,SW,225,2.2,3.3,64,0.00,,,0.00,WUHU215HW,2013-07-04 06:28:00,
2013-07-04 01:29:00,67.2,54.6,30.04,SW,225,2.2,3.3,64,0.00,,,0.00,WUHU215HW,2013-07-04 06:29:00,
2013-07-04 01:30:00,67.2,54.6,30.04,SW,225,2.2,3.3,64,0.00,,,0.00,WUHU215HW,2013-07-04 06:30:00,
2013-07-04 01:33:00,67.2,54.6,30.04,SW,225,0.0,2.2,64,0.00,,,0.00,WUHU215HW,2013-07-04 06:33:00,
2013-07-04 01:34:00,67.1,54.6,30.04,SW,225,0.0,2.2,64,0.00,,,0.00,WUHU215HW,2013-07-04 06:34:00,
2013-07-04 01:35:00,67.1,54.4,30.04,SW,225,0.0,2.2,64,0.00,,,0.00,WUHU215HW,2013-07-04 06:35:00,
2013-07-04 01:37:00,67.1,54.4,30.04,SSE,158,0.0,2.2,64,0.00,,,0.00,WUHU215HW,2013-07-04 06:37:00,
2013-07-04 01:38:00,67.1,54.4,30.04,SSE,158,0.0,2.2,64,0.00,,,0.00,WUHU215HW,2013-07-04 06:38:00,
2013-07-04 01:40:00,67.1,54.4,30.04,South,180,0.0,0.0,64,0.00,,,0.00,WUHU215HW,2013-07-04 06:40:00,
2013-07-04 01:41:00,66.9,54.3,30.04,South,180,0.0,0.0,64,0.00,,,0.00,WUHU215HW,2013-07-04 06:41:00,
2013-07-04 01:43:00,66.9,54.3,30.04,South,180,0.0,0.0,64,0.00,,,0.00,WUHU215HW,2013-07-04 06:43:00,
2013-07-04 01:45:00,66.9,54.3,30.04,South,180,0.0,0.0,64,0.00,,,0.00,WUHU215HW,2013-07-04 06:45:00,
2013-07-04 01:47:00,66.9,54.3,30.04,South,180,0.0,0.0,64,0.00,,,0.00,WUHU215HW,2013-07-04 06:47:00,
2013-07-04 01:48:00,66.9,54.3,30.04,SW,225,0.0,0.0,64,0.00,,,0.00,WUHU215HW,2013-07-04 06:48:00,
2013-07-04 01:50:00,66.7,54.1,30.04,North,0,0.0,0.0,64,0.00,,,0.00,WUHU215HW,2013-07-04 06:50:00,
2013-07-04 01:51:00,66.7,54.1,30.04,North,0,0.0,0.0,64,0.00,,,0.00,WUHU215HW,2013-07-04 06:51:00,
2013-07-04 01:52:00,66.7,54.1,30.04,South,180,0.0,0.0,64,0.00,,,0.00,WUHU215HW,2013-07-04 06:52:00,
2013-07-04 01:54:00,66.7,54.1,30.04,SW,225,5.1,5.1,64,0.00,,,0.00,WUHU215HW,2013-07-04 06:54:00,
2013-07-04 01:55:00,66.7,54.1,30.04,SW,225,5.1,5.1,64,0.00,,,0.00,WUHU215HW,2013-07-04 06:55:00,
2013-07-04 01:56:00,66.5,53.9,30.04,SW,225,5.1,5.1,64,0.00,,,0.00,WUHU215HW,2013-07-04 06:56:00,
2013-07-04 01:59:00,66.5,53.9,30.04,SW,225,0.0,5.1,64,0.00,,,0.00,WUHU215HW,2013-07-04 06:59:00,
2013-07-04 02:00:00,66.5,53.9,30.04,West,270,0.0,5.1,64,0.00,,,0.00,WUHU215HW,2013-07-04 07:00:00,
2013-07-04 02:03:00,66.5,53.9,30.04,West,270,0.0,5.1,64,0.00,,,0.00,WUHU215HW,2013-07-04 07:03:00,
2013-07-04 02:06:00,66.3,53.9,30.04,West,270,0.0,0.0,64,0.00,,,0.00,WUHU215HW,2013-07-04 07:06:00,
2013-07-04 02:08:00,66.3,53.7,30.04,SSW,203,0.0,0.0,64,0.00,,,0.00,WUHU215HW,2013-07-04 07:08:00,
2013-07-04 02:11:00,66.2,53.7,30.04,SE,135,0.0,0.0,64,0.00,,,0.00,WUHU215HW,2013-07-04 07:11:00,
2013-07-04 02:13:00,66.2,53.7,30.04,South,180,0.0,0.0,65,0.00,,,0.00,WUHU215HW,2013-07-04 07:13:00,
2013-07-04 02:18:00,66.0,53.7,30.04,SW,216,0.9,1.1,65,0.00,,,0.00,WUHU215HW,2013-07-04 07:18:00,
2013-07-04 02:20:00,66.0,53.8,30.04,SW,225,0.8,1.1,65,0.00,,,0.00,WUHU215HW,2013-07-04 07:20:00,
2013-07-04 02:23:00,66.0,53.8,30.04,WNW,293,0.0,1.1,65,0.00,,,0.00,WUHU215HW,2013-07-04 07:23:00,
2013-07-04 02:24:00,66.0,53.8,30.04,SSW,203,5.1,5.1,65,0.00,,,0.00,WUHU215HW,2013-07-04 07:24:00,
2013-07-04 02:26:00,66.0,53.8,30.04,SSW,203,5.1,5.1,65,0.00,,,0.00,WUHU215HW,2013-07-04 07:26:00,
2013-07-04 02:28:00,66.0,53.8,30.04,SSW,203,0.0,5.1,65,0.00,,,0.00,WUHU215HW,2013-07-04 07:28:00,
2013-07-04 02:29:00,66.0,53.8,30.04,SSW,203,0.0,5.1,65,0.00,,,0.00,WUHU215HW,2013-07-04 07:29:00,
2013-07-04 02:32:00,65.8,53.7,30.04,South,180,0.0,5.1,65,0.00,,,0.00,WUHU215HW,2013-07-04 07:32:00,
2013-07-04 02:33:00,65.8,53.7,30.04,South,180,0.0,5.1,65,0.00,,,0.00,WUHU215HW,2013-07-04 07:33:00,
2013-07-04 02:34:00,65.8,53.7,30.04,South,180,0.0,5.1,65,0.00,,,0.00,WUHU215HW,2013-07-04 07:34:00,
2013-07-04 02:35:00,65.8,53.7,30.04,West,270,0.0,5.1,65,0.00,,,0.00,WUHU215HW,2013-07-04 07:35:00,
2013-07-04 02:38:00,65.8,53.7,30.04,SSE,158,0.0,0.0,65,0.00,,,0.00,WUHU215HW,2013-07-04 07:38:00,
2013-07-04 02:39:00,65.8,53.7,30.04,SE,135,0.0,0.0,65,0.00,,,0.00,WUHU215HW,2013-07-04 07:39:00,
2013-07-04 02:40:00,65.8,53.7,30.04,SE,135,0.0,0.0,65,0.00,,,0.00,WUHU215HW,2013-07-04 07:40:00,
2013-07-04 02:42:00,65.6,53.7,30.04,SW,225,0.0,0.0,65,0.00,,,0.00,WUHU215HW,2013-07-04 07:42:00,
2013-07-04 02:46:00,65.4,53.7,30.04,SSW,203,0.0,0.0,66,0.00,,,0.00,WUHU215HW,2013-07-04 07:46:00,
2013-07-04 02:47:00,65.4,53.7,30.04,SSW,203,0.0,0.0,66,0.00,,,0.00,WUHU215HW,2013-07-04 07:47:00,
2013-07-04 02:48:00,65.4,53.7,30.04,SSW,203,0.0,0.0,66,0.00,,,0.00,WUHU215HW,2013-07-04 07:48:00,
2013-07-04 02:49:00,65.4,53.7,30.04,SSW,203,0.0,0.0,66,0.00,,,0.00,WUHU215HW,2013-07-04 07:49:00,
2013-07-04 02:50:00,65.4,53.7,30.04,SSW,203,0.0,0.0,66,0.00,,,0.00,WUHU215HW,2013-07-04 07:50:00,
2013-07-04 02:51:00,65.4,53.7,30.04,SSW,203,0.0,0.0,66,0.00,,,0.00,WUHU215HW,2013-07-04 07:51:00,
2013-07-04 02:56:00,65.4,53.7,30.04,SE,135,2.2,2.2,66,0.00,,,0.00,WUHU215HW,2013-07-04 07:56:00,
2013-07-04 02:57:00,65.3,53.7,30.04,SE,135,2.2,2.2,66,0.00,,,0.00,WUHU215HW,2013-07-04 07:57:00,
2013-07-04 02:58:00,65.3,53.7,30.04,SE,135,2.2,2.2,66,0.00,,,0.00,WUHU215HW,2013-07-04 07:58:00,
2013-07-04 03:01:00,65.3,53.7,30.04,SSE,158,0.0,2.2,66,0.00,,,0.00,WUHU215HW,2013-07-04 08:01:00,
2013-07-04 03:03:00,65.3,53.6,30.04,WSW,248,0.0,2.2,66,0.00,,,0.00,WUHU215HW,2013-07-04 08:03:00,
2013-07-04 03:05:00,65.1,53.4,30.04,WSW,248,0.0,2.2,66,0.00,,,0.00,WUHU215HW,2013-07-04 08:05:00,
2013-07-04 03:06:00,65.1,53.4,30.04,WSW,248,0.0,2.2,66,0.00,,,0.00,WUHU215HW,2013-07-04 08:06:00,
2013-07-04 03:09:00,65.1,53.4,30.04,SSW,203,0.0,0.0,66,0.00,,,0.00,WUHU215HW,2013-07-04 08:09:00,
2013-07-04 03:10:00,65.1,53.4,30.04,SSW,203,0.0,0.0,66,0.00,,,0.00,WUHU215HW,2013-07-04 08:10:00,
2013-07-04 03:12:00,65.1,53.4,30.04,SSW,203,1.7,1.7,66,0.00,,,0.00,WUHU215HW,2013-07-04 08:12:00,
2013-07-04 03:15:00,64.9,53.4,30.04,East,90,0.0,1.7,67,0.00,,,0.00,WUHU215HW,2013-07-04 08:15:00,
2013-07-04 03:16:00,64.9,53.4,30.04,East,90,0.0,1.7,67,0.00,,,0.00,WUHU215HW,2013-07-04 08:16:00,
2013-07-04 03:17:00,64.9,53.4,30.04,East,90,0.0,1.7,67,0.00,,,0.00,WUHU215HW,2013-07-04 08:17:00,
2013-07-04 03:18:00,64.9,53.4,30.04,WSW,248,0.0,1.7,67,0.00,,,0.00,WUHU215HW,2013-07-04 08:18:00,
2013-07-04 03:20:00,64.9,53.6,30.04,WSW,248,0.0,1.7,67,0.00,,,0.00,WUHU215HW,2013-07-04 08:20:00,
2013-07-04 03:22:00,64.7,53.5,30.04,SSE,158,0.0,1.7,67,0.00,,,0.00,WUHU215HW,2013-07-04 08:22:00,
2013-07-04 03:25:00,64.7,53.5,30.04,NW,315,0.0,0.0,67,0.00,,,0.00,WUHU215HW,2013-07-04 08:25:00,
2013-07-04 03:26:00,64.7,53.5,30.04,NNE,23,0.0,0.0,67,0.00,,,0.00,WUHU215HW,2013-07-04 08:26:00,
2013-07-04 03:27:00,64.7,53.5,30.04,NNE,23,0.0,0.0,67,0.00,,,0.00,WUHU215HW,2013-07-04 08:27:00,
2013-07-04 03:30:00,64.5,53.3,30.04,South,180,3.8,3.8,67,0.00,,,0.00,WUHU215HW,2013-07-04 08:30:00,
2013-07-04 03:32:00,64.5,53.3,30.04,South,180,3.8,3.8,67,0.00,,,0.00,WUHU215HW,2013-07-04 08:32:00,
2013-07-04 03:33:00,64.5,53.3,30.04,South,180,3.8,3.8,67,0.00,,,0.00,WUHU215HW,2013-07-04 08:33:00,
2013-07-04 03:35:00,64.5,53.3,30.04,ENE,68,0.0,3.8,67,0.00,,,0.00,WUHU215HW,2013-07-04 08:35:00,
2013-07-04 03:37:00,64.5,53.3,30.04,SSE,158,0.0,3.8,67,0.00,,,0.00,WUHU215HW,2013-07-04 08:37:00,
2013-07-04 03:38:00,64.5,53.3,30.04,SSE,158,0.0,3.8,67,0.00,,,0.00,WUHU215HW,2013-07-04 08:38:00,
2013-07-04 03:39:00,64.5,53.3,30.04,SSW,203,6.7,6.7,67,0.00,,,0.00,WUHU215HW,2013-07-04 08:39:00,
2013-07-04 03:40:00,64.5,53.3,30.04,SSW,203,6.7,6.7,67,0.00,,,0.00,WUHU215HW,2013-07-04 08:40:00,
2013-07-04 03:43:00,64.5,53.3,30.04,SSW,203,1.7,6.7,67,0.00,,,0.00,WUHU215HW,2013-07-04 08:43:00,
2013-07-04 03:45:00,64.4,53.3,30.04,SSW,203,0.0,6.7,68,0.00,,,0.00,WUHU215HW,2013-07-04 08:45:00,
2013-07-04 03:46:00,64.4,53.3,30.04,SSW,203,0.0,6.7,68,0.00,,,0.00,WUHU215HW,2013-07-04 08:46:00,
2013-07-04 03:50:00,64.2,53.3,30.04,South,180,0.0,6.7,68,0.00,,,0.00,WUHU215HW,2013-07-04 08:50:00,
2013-07-04 03:51:00,64.2,53.3,30.04,SSW,203,0.0,1.7,68,0.00,,,0.00,WUHU215HW,2013-07-04 08:51:00,
2013-07-04 03:52:00,64.2,53.3,30.04,SSW,203,0.0,1.7,68,0.00,,,0.00,WUHU215HW,2013-07-04 08:52:00,
2013-07-04 03:55:00,64.2,53.4,30.04,South,180,0.0,0.0,68,0.00,,,0.00,WUHU215HW,2013-07-04 08:55:00,
2013-07-04 03:56:00,64.2,53.4,30.04,South,180,0.0,0.0,68,0.00,,,0.00,WUHU215HW,2013-07-04 08:56:00,
2013-07-04 03:58:00,64.2,53.4,30.04,SW,225,0.0,0.0,68,0.00,,,0.00,WUHU215HW,2013-07-04 08:58:00,
2013-07-04 03:59:00,64.2,53.4,30.04,SW,225,0.0,0.0,68,0.00,,,0.00,WUHU215HW,2013-07-04 08:59:00,
2013-07-04 04:01:00,64.2,53.4,30.04,SSE,158,3.1,3.1,68,0.00,,,0.00,WUHU215HW,2013-07-04 09:01:00,
2013-07-04 04:02:00,64.2,53.2,30.04,SSE,165,2.1,3.1,68,0.00,,,0.00,WUHU215HW,2013-07-04 09:02:00,
2013-07-04 04:05:00,64.0,53.2,30.04,WSW,248,0.8,3.1,68,0.00,,,0.00,WUHU215HW,2013-07-04 09:05:00,
2013-07-04 04:06:00,64.0,53.2,30.04,SSE,158,0.0,3.1,68,0.00,,,0.00,WUHU215HW,2013-07-04 09:06:00,
2013-07-04 04:08:00,64.0,53.2,30.04,SE,135,0.0,3.1,68,0.00,,,0.00,WUHU215HW,2013-07-04 09:08:00,
2013-07-04 04:09:00,64.0,53.2,30.04,SE,135,0.0,3.1,69,0.00,,,0.00,WUHU215HW,2013-07-04 09:09:00,
2013-07-04 04:10:00,64.0,53.2,30.04,SE,135,0.0,3.1,69,0.00,,,0.00,WUHU215HW,2013-07-04 09:10:00,
2013-07-04 04:14:00,64.0,53.7,30.04,WSW,248,0.0,0.0,69,0.00,,,0.00,WUHU215HW,2013-07-04 09:14:00,
2013-07-04 04:15:00,64.0,53.7,30.04,SE,135,0.0,0.0,69,0.00,,,0.00,WUHU215HW,2013-07-04 09:15:00,
2013-07-04 04:17:00,64.0,53.7,30.04,SW,225,0.0,0.0,69,0.00,,,0.00,WUHU215HW,2013-07-04 09:17:00,
2013-07-04 04:18:00,64.0,53.7,30.04,SW,225,0.0,0.0,69,0.00,,,0.00,WUHU215HW,2013-07-04 09:18:00,
2013-07-04 04:19:00,64.0,53.7,30.04,WSW,248,0.0,0.0,69,0.00,,,0.00,WUHU215HW,2013-07-04 09:19:00,
2013-07-04 04:20:00,63.8,53.7,30.04,WSW,248,0.0,0.0,69,0.00,,,0.00,WUHU215HW,2013-07-04 09:20:00,
2013-07-04 04:21:00,63.8,53.7,30.04,WSW,248,0.0,0.0,69,0.00,,,0.00,WUHU215HW,2013-07-04 09:21:00,
2013-07-04 04:24:00,63.6,53.3,30.04,SE,135,0.0,0.0,69,0.00,,,0.00,WUHU215HW,2013-07-04 09:24:00,
2013-07-04 04:25:00,63.6,53.3,30.04,SE,135,0.0,0.0,69,0.00,,,0.00,WUHU215HW,2013-07-04 09:25:00,
2013-07-04 04:26:00,63.6,53.3,30.04,SSE,158,0.0,0.0,69,0.00,,,0.00,WUHU215HW,2013-07-04 09:26:00,
2013-07-04 04:28:00,63.6,53.3,30.04,SSE,158,0.0,0.0,69,0.00,,,0.00,WUHU215HW,2013-07-04 09:28:00,
2013-07-04 04:31:00,63.6,53.3,30.04,SE,135,0.4,0.4,69,0.00,,,0.00,WUHU215HW,2013-07-04 09:31:00,
2013-07-04 04:32:00,63.6,53.3,30.04,SE,135,0.4,0.4,69,0.00,,,0.00,WUHU215HW,2013-07-04 09:32:00,
2013-07-04 04:33:00,63.5,53.3,30.04,SE,135,0.4,0.4,69,0.00,,,0.00,WUHU215HW,2013-07-04 09:33:00,
2013-07-04 04:37:00,63.3,53.4,30.04,SW,225,0.0,0.4,70,0.00,,,0.00,WUHU215HW,2013-07-04 09:37:00,
2013-07-04 04:38:00,63.3,53.4,30.04,SW,225,0.0,0.4,70,0.00,,,0.00,WUHU215HW,2013-07-04 09:38:00,
2013-07-04 04:39:00,63.3,53.4,30.04,SW,225,0.0,0.4,70,0.00,,,0.00,WUHU215HW,2013-07-04 09:39:00,
2013-07-04 04:40:00,63.3,53.4,30.04,SW,225,0.0,0.4,70,0.00,,,0.00,WUHU215HW,2013-07-04 09:40:00,
2013-07-04 04:42:00,63.3,53.4,30.04,SSE,158,0.0,0.0,70,0.00,,,0.00,WUHU215HW,2013-07-04 09:42:00,
2013-07-04 04:44:00,63.3,53.4,30.04,SSE,158,0.0,0.0,70,0.00,,,0.00,WUHU215HW,2013-07-04 09:44:00,
2013-07-04 04:45:00,63.3,53.4,30.04,SE,135,0.0,0.0,70,0.00,,,0.00,WUHU215HW,2013-07-04 09:45:00,
2013-07-04 04:46:00,63.3,53.4,30.04,SE,135,0.0,0.0,70,0.00,,,0.00,WUHU215HW,2013-07-04 09:46:00,
2013-07-04 04:48:00,63.1,53.4,30.04,SE,135,0.0,0.0,71,0.00,,,0.00,WUHU215HW,2013-07-04 09:48:00,
2013-07-04 04:49:00,63.1,53.4,30.04,SE,135,0.0,0.0,71,0.00,,,0.00,WUHU215HW,2013-07-04 09:49:00,
2013-07-04 04:51:00,63.1,53.4,30.04,West,270,0.0,0.0,71,0.00,,,0.00,WUHU215HW,2013-07-04 09:51:00,
2013-07-04 04:55:00,62.9,53.4,30.04,South,180,0.0,0.0,71,0.00,,,0.00,WUHU215HW,2013-07-04 09:55:00,
2013-07-04 04:58:00,62.7,53.6,30.04,WNW,293,0.0,0.0,72,0.00,,,0.00,WUHU215HW,2013-07-04 09:58:00,
2013-07-04 05:00:00,62.7,53.6,30.04,SSW,203,0.0,0.0,72,0.00,,,0.00,WUHU215HW,2013-07-04 10:00:00,
2013-07-04 05:03:00,62.7,53.6,30.04,SSE,158,0.0,0.0,72,0.00,,,0.00,WUHU215HW,2013-07-04 10:03:00,
2013-07-04 05:05:00,62.7,53.6,30.04,South,180,0.0,0.0,72,0.00,,,0.00,WUHU215HW,2013-07-04 10:05:00,
2013-07-04 05:07:00,62.6,53.4,30.04,WSW,248,0.0,0.0,72,0.00,,,0.00,WUHU215HW,2013-07-04 10:07:00,
2013-07-04 05:08:00,62.6,53.4,30.04,WSW,248,0.0,0.0,72,0.00,,,0.00,WUHU215HW,2013-07-04 10:08:00,
2013-07-04 05:10:00,62.6,53.4,30.04,WSW,248,0.0,0.0,72,0.00,,,0.00,WUHU215HW,2013-07-04 10:10:00,
2013-07-04 05:14:00,62.4,53.2,30.04,SSW,203,0.0,0.0,72,0.00,,,0.00,WUHU215HW,2013-07-04 10:14:00,
2013-07-04 05:15:00,62.4,53.2,30.04,SW,225,0.0,0.0,72,0.00,,,0.00,WUHU215HW,2013-07-04 10:15:00,
2013-07-04 05:16:00,62.4,53.2,30.04,SW,225,0.0,0.0,72,0.00,,,0.00,WUHU215HW,2013-07-04 10:16:00,
2013-07-04 05:18:00,62.4,53.2,30.04,South,180,0.0,0.0,72,0.00,,,0.00,WUHU215HW,2013-07-04 10:18:00,
2013-07-04 05:20:00,62.4,53.2,30.04,SSE,158,0.0,0.0,72,0.00,,,0.00,WUHU215HW,2013-07-04 10:20:00,
2013-07-04 05:22:00,62.4,53.2,30.04,South,180,0.0,0.0,72,0.00,,,0.00,WUHU215HW,2013-07-04 10:22:00,
2013-07-04 05:23:00,62.4,53.2,30.04,South,180,0.0,0.0,72,0.00,,,0.00,WUHU215HW,2013-07-04 10:23:00,
2013-07-04 05:24:00,62.4,53.2,30.04,East,90,0.0,0.0,72,0.00,,,0.00,WUHU215HW,2013-07-04 10:24:00,
2013-07-04 05:25:00,62.4,53.2,30.04,East,90,0.0,0.0,72,0.00,,,0.00,WUHU215HW,2013-07-04 10:25:00,
2013-07-04 05:27:00,62.4,53.2,30.04,SW,225,0.0,0.0,72,0.00,,,0.00,WUHU215HW,2013-07-04 10:27:00,
2013-07-04 05:28:00,62.4,53.2,30.04,SSE,158,0.0,0.0,72,0.00,,,0.00,WUHU215HW,2013-07-04 10:28:00,
2013-07-04 05:30:00,62.4,53.2,30.04,SSE,158,0.0,0.0,72,0.00,,,0.00,WUHU215HW,2013-07-04 10:30:00,
2013-07-04 05:33:00,62.4,53.2,30.04,SSE,158,0.0,0.0,72,0.00,,,0.00,WUHU215HW,2013-07-04 10:33:00,
2013-07-04 05:35:00,62.4,53.2,30.04,SSE,158,0.0,0.0,72,0.00,,,0.00,WUHU215HW,2013-07-04 10:35:00,
2013-07-04 05:36:00,62.4,53.2,30.04,South,180,0.0,0.0,72,0.00,,,0.00,WUHU215HW,2013-07-04 10:36:00,
2013-07-04 05:38:00,62.4,53.2,30.04,SSE,158,0.0,0.0,72,0.00,,,0.00,WUHU215HW,2013-07-04 10:38:00,
2013-07-04 05:40:00,62.4,53.2,30.04,SSE,158,0.0,0.0,72,0.00,,,0.00,WUHU215HW,2013-07-04 10:40:00,
2013-07-04 05:42:00,62.4,53.6,30.04,South,180,0.0,0.0,73,0.00,,,0.00,WUHU215HW,2013-07-04 10:42:00,
2013-07-04 05:44:00,62.2,53.4,30.04,NW,315,0.0,0.0,73,0.00,,,0.00,WUHU215HW,2013-07-04 10:44:00,
2013-07-04 05:46:00,62.4,53.6,30.04,SE,135,0.8,0.8,73,0.00,,,0.00,WUHU215HW,2013-07-04 10:46:00,
2013-07-04 05:47:00,62.2,53.6,30.04,SE,135,0.8,0.8,73,0.00,,,0.00,WUHU215HW,2013-07-04 10:47:00,
2013-07-04 05:49:00,62.2,53.6,30.04,SE,135,0.0,0.8,73,0.00,,,0.00,WUHU215HW,2013-07-04 10:49:00,
2013-07-04 05:51:00,62.2,53.6,30.04,SE,135,0.0,0.8,73,0.00,,,0.00,WUHU215HW,2013-07-04 10:51:00,
2013-07-04 05:52:00,62.2,53.6,30.04,SE,135,0.0,0.8,73,0.00,,,0.00,WUHU215HW,2013-07-04 10:52:00,
2013-07-04 05:53:00,62.2,53.6,30.04,SE,135,0.0,0.8,73,0.00,,,0.00,WUHU215HW,2013-07-04 10:53:00,
2013-07-04 05:56:00,62.2,53.4,30.04,SSW,203,0.0,0.8,73,0.00,,,0.00,WUHU215HW,2013-07-04 10:56:00,
2013-07-04 05:57:00,62.2,53.4,30.04,SSW,203,0.0,0.0,73,0.00,,,0.00,WUHU215HW,2013-07-04 10:57:00,
2013-07-04 05:59:00,62.0,53.4,30.04,WSW,248,0.0,0.0,73,0.00,,,0.00,WUHU215HW,2013-07-04 10:59:00,
2013-07-04 06:00:00,62.2,53.4,30.04,South,180,0.0,0.0,73,0.00,,,0.00,WUHU215HW,2013-07-04 11:00:00,
2013-07-04 06:02:00,62.0,53.2,30.04,WSW,248,0.0,0.0,73,0.00,,,0.00,WUHU215HW,2013-07-04 11:02:00,
2013-07-04 06:05:00,62.0,53.2,30.04,SSW,203,0.0,0.0,73,0.00,,,0.00,WUHU215HW,2013-07-04 11:05:00,
2013-07-04 06:07:00,61.8,53.2,30.04,South,180,0.0,0.0,73,0.00,,,0.00,WUHU215HW,2013-07-04 11:07:00,
2013-07-04 06:08:00,61.8,53.2,30.04,South,180,0.0,0.0,73,0.00,,,0.00,WUHU215HW,2013-07-04 11:08:00,
2013-07-04 06:10:00,62.0,53.2,30.04,SSE,158,0.0,0.0,73,0.00,,,0.00,WUHU215HW,2013-07-04 11:10:00,
2013-07-04 06:14:00,61.8,53.1,30.04,ESE,113,0.0,0.0,73,0.00,,,0.00,WUHU215HW,2013-07-04 11:14:00,
2013-07-04 06:15:00,61.8,53.4,30.04,WSW,248,0.0,0.0,74,0.00,,,0.00,WUHU215HW,2013-07-04 11:15:00,
2013-07-04 06:17:00,61.8,53.4,30.04,ESE,113,0.0,0.0,74,0.00,,,0.00,WUHU215HW,2013-07-04 11:17:00,
2013-07-04 06:20:00,61.8,53.4,30.04,SSW,203,0.0,0.0,74,0.00,,,0.00,WUHU215HW,2013-07-04 11:20:00,
2013-07-04 06:22:00,61.8,53.4,30.04,SSW,203,0.0,0.0,74,0.00,,,0.00,WUHU215HW,2013-07-04 11:22:00,
2013-07-04 06:23:00,61.8,53.4,30.04,SSW,203,0.0,0.0,74,0.00,,,0.00,WUHU215HW,2013-07-04 11:23:00,
2013-07-04 06:27:00,61.8,53.4,30.04,South,180,1.7,1.7,74,0.00,,,0.00,WUHU215HW,2013-07-04 11:27:00,
2013-07-04 06:28:00,61.8,53.4,30.04,West,270,0.0,1.7,74,0.00,,,0.00,WUHU215HW,2013-07-04 11:28:00,
2013-07-04 06:29:00,61.8,53.4,30.04,West,270,0.0,1.7,74,0.00,,,0.00,WUHU215HW,2013-07-04 11:29:00,
2013-07-04 06:30:00,61.8,53.4,30.04,SSW,203,0.0,1.7,74,0.00,,,0.00,WUHU215HW,2013-07-04 11:30:00,
2013-07-04 06:33:00,62.0,53.6,30.04,NW,315,0.0,1.7,74,0.00,,,0.00,WUHU215HW,2013-07-04 11:33:00,
2013-07-04 06:34:00,62.0,53.6,30.04,WNW,293,0.0,1.7,74,0.00,,,0.00,WUHU215HW,2013-07-04 11:34:00,
2013-07-04 06:35:00,62.0,53.6,30.04,WNW,293,0.0,1.7,74,0.00,,,0.00,WUHU215HW,2013-07-04 11:35:00,
2013-07-04 06:36:00,62.0,53.6,30.04,WNW,293,0.0,0.0,74,0.00,,,0.00,WUHU215HW,2013-07-04 11:36:00,
2013-07-04 06:37:00,62.0,53.6,30.04,SSW,203,0.0,0.0,74,0.00,,,0.00,WUHU215HW,2013-07-04 11:37:00,
2013-07-04 06:40:00,62.2,53.6,30.04,SSE,158,0.0,0.0,74,0.00,,,0.00,WUHU215HW,2013-07-04 11:40:00,
2013-07-04 06:42:00,62.2,53.6,30.04,South,180,0.0,0.0,74,0.00,,,0.00,WUHU215HW,2013-07-04 11:42:00,
2013-07-04 06:43:00,62.2,53.6,30.04,South,180,0.0,0.0,74,0.00,,,0.00,WUHU215HW,2013-07-04 11:43:00,
2013-07-04 06:45:00,62.2,53.8,30.04,South,180,0.0,0.0,74,0.00,,,0.00,WUHU215HW,2013-07-04 11:45:00,
2013-07-04 06:47:00,62.4,54.3,30.04,WSW,248,0.0,0.0,75,0.00,,,0.00,WUHU215HW,2013-07-04 11:47:00,
2013-07-04 06:50:00,62.4,54.3,30.04,SW,225,0.0,0.0,75,0.00,,,0.00,WUHU215HW,2013-07-04 11:50:00,
2013-07-04 06:52:00,62.4,54.3,30.04,SSW,203,0.0,0.0,75,0.00,,,0.00,WUHU215HW,2013-07-04 11:52:00,
2013-07-04 06:53:00,62.4,54.3,30.04,SSE,158,0.0,0.0,75,0.00,,,0.00,WUHU215HW,2013-07-04 11:53:00,
2013-07-04 06:54:00,62.4,54.3,30.04,SSE,158,0.0,0.0,75,0.00,,,0.00,WUHU215HW,2013-07-04 11:54:00,
2013-07-04 06:57:00,63.1,55.0,30.04,SSE,158,0.0,0.0,75,0.00,,,0.00,WUHU215HW,2013-07-04 11:57:00,
2013-07-04 06:58:00,63.3,54.8,30.04,SSW,203,0.0,0.0,74,0.00,,,0.00,WUHU215HW,2013-07-04 11:58:00,
2013-07-04 06:59:00,63.3,54.8,30.04,SSW,203,0.0,0.0,74,0.00,,,0.00,WUHU215HW,2013-07-04 11:59:00,
2013-07-04 07:02:00,63.6,55.2,30.04,SSW,203,4.6,4.6,74,0.00,,,0.00,WUHU215HW,2013-07-04 12:02:00,
2013-07-04 07:03:00,63.6,55.2,30.04,SSW,203,4.6,4.6,74,0.00,,,0.00,WUHU215HW,2013-07-04 12:03:00,
2013-07-04 07:04:00,63.8,55.2,30.04,SSW,203,0.0,4.6,73,0.00,,,0.00,WUHU215HW,2013-07-04 12:04:00,
2013-07-04 07:06:00,64.0,55.0,30.04,SSW,203,0.0,4.6,73,0.00,,,0.00,WUHU215HW,2013-07-04 12:06:00,
2013-07-04 07:09:00,64.2,55.4,30.04,West,270,0.0,4.6,73,0.00,,,0.00,WUHU215HW,2013-07-04 12:09:00,
2013-07-04 07:10:00,64.2,55.4,30.04,West,270,0.0,4.6,73,0.00,,,0.00,WUHU215HW,2013-07-04 12:10:00,
2013-07-04 07:11:00,64.2,55.4,30.04,SW,225,0.0,4.6,73,0.00,,,0.00,WUHU215HW,2013-07-04 12:11:00,
2013-07-04 07:14:00,64.5,55.7,30.04,WSW,248,0.0,0.0,73,0.00,,,0.00,WUHU215HW,2013-07-04 12:14:00,
2013-07-04 07:15:00,64.5,55.7,30.04,WSW,248,0.0,0.0,73,0.00,,,0.00,WUHU215HW,2013-07-04 12:15:00,
2013-07-04 07:16:00,64.5,55.7,30.04,SE,135,0.0,0.0,73,0.00,,,0.00,WUHU215HW,2013-07-04 12:16:00,
2013-07-04 07:18:00,64.7,55.5,30.04,SE,135,0.0,0.0,72,0.00,,,0.00,WUHU215HW,2013-07-04 12:18:00,
2013-07-04 07:19:00,64.7,55.5,30.04,SSW,203,0.0,0.0,72,0.00,,,0.00,WUHU215HW,2013-07-04 12:19:00,
2013-07-04 07:20:00,64.9,55.7,30.04,SSW,203,0.0,0.0,72,0.00,,,0.00,WUHU215HW,2013-07-04 12:20:00,
2013-07-04 07:22:00,65.1,55.8,30.04,SSE,158,0.0,0.0,72,0.00,,,0.00,WUHU215HW,2013-07-04 12:22:00,
2013-07-04 07:24:00,65.1,55.8,30.04,SSE,158,0.0,0.0,72,0.00,,,0.00,WUHU215HW,2013-07-04 12:24:00,
2013-07-04 07:27:00,65.3,56.0,30.04,SSW,203,0.0,0.0,72,0.00,,,0.00,WUHU215HW,2013-07-04 12:27:00,
2013-07-04 07:28:00,65.4,55.8,30.04,SW,225,0.0,0.0,71,0.00,,,0.00,WUHU215HW,2013-07-04 12:28:00,
2013-07-04 07:31:00,65.8,56.1,30.04,SW,225,0.0,0.0,71,0.00,,,0.00,WUHU215HW,2013-07-04 12:31:00,
2013-07-04 07:32:00,66.0,56.3,30.04,SW,225,0.0,0.0,71,0.00,,,0.00,WUHU215HW,2013-07-04 12:32:00,
2013-07-04 07:33:00,66.0,56.3,30.04,WSW,248,0.0,0.0,71,0.00,,,0.00,WUHU215HW,2013-07-04 12:33:00,
2013-07-04 07:36:00,66.0,56.3,30.04,SSE,158,0.0,0.0,71,0.00,,,0.00,WUHU215HW,2013-07-04 12:36:00,
2013-07-04 07:38:00,66.0,56.3,30.04,SSW,203,0.0,0.0,71,0.00,,,0.00,WUHU215HW,2013-07-04 12:38:00,
2013-07-04 07:40:00,66.5,56.3,30.04,SSW,203,0.0,0.0,71,0.00,,,0.00,WUHU215HW,2013-07-04 12:40:00,
2013-07-04 07:42:00,66.7,56.3,30.04,SSW,203,0.0,0.0,71,0.00,,,0.00,WUHU215HW,2013-07-04 12:42:00,
2013-07-04 07:43:00,66.7,56.3,30.04,SW,225,0.0,0.0,70,0.00,,,0.00,WUHU215HW,2013-07-04 12:43:00,
2013-07-04 07:45:00,66.9,56.8,30.04,WSW,248,0.0,0.0,70,0.00,,,0.00,WUHU215HW,2013-07-04 12:45:00,
2013-07-04 07:47:00,67.1,57.0,30.04,SSE,158,1.3,1.3,70,0.00,,,0.00,WUHU215HW,2013-07-04 12:47:00,
2013-07-04 07:48:00,67.1,57.0,30.04,SSE,158,1.3,1.3,70,0.00,,,0.00,WUHU215HW,2013-07-04 12:48:00,
2013-07-04 07:49:00,67.1,57.0,30.04,SSE,158,1.3,1.3,70,0.00,,,0.00,WUHU215HW,2013-07-04 12:49:00,
2013-07-04 07:50:00,67.2,57.0,30.04,SSE,158,1.3,1.3,69,0.00,,,0.00,WUHU215HW,2013-07-04 12:50:00,
2013-07-04 07:52:00,67.2,56.7,30.04,SSE,158,1.3,1.3,69,0.00,,,0.00,WUHU215HW,2013-07-04 12:52:00,
2013-07-04 07:54:00,67.2,56.7,30.04,South,180,0.0,1.3,69,0.00,,,0.00,WUHU215HW,2013-07-04 12:54:00,
2013-07-04 07:57:00,67.8,56.7,30.04,South,180,0.0,1.3,69,0.00,,,0.00,WUHU215HW,2013-07-04 12:57:00,
2013-07-04 07:58:00,68.0,56.7,30.04,SW,225,0.0,1.3,69,0.00,,,0.00,WUHU215HW,2013-07-04 12:58:00,
2013-07-04 07:59:00,68.0,56.7,30.04,SW,225,0.0,1.3,69,0.00,,,0.00,WUHU215HW,2013-07-04 12:59:00,
2013-07-04 08:03:00,68.3,57.3,30.04,SSE,158,0.0,0.0,68,0.00,,,0.00,WUHU215HW,2013-07-04 13:03:00,
2013-07-04 08:04:00,68.5,57.3,30.04,SW,225,1.7,1.7,68,0.00,,,0.00,WUHU215HW,2013-07-04 13:04:00,
2013-07-04 08:06:00,68.5,57.3,30.04,SW,225,1.7,1.7,68,0.00,,,0.00,WUHU215HW,2013-07-04 13:06:00,
2013-07-04 08:08:00,68.5,57.3,30.04,SW,225,1.7,1.7,67,0.00,,,0.00,WUHU215HW,2013-07-04 13:08:00,
2013-07-04 08:09:00,68.7,57.3,30.04,SW,225,6.4,6.4,67,0.00,,,0.00,WUHU215HW,2013-07-04 13:09:00,
2013-07-04 08:12:00,68.7,57.2,30.04,SW,225,6.4,6.4,67,0.00,,,0.00,WUHU215HW,2013-07-04 13:12:00,
2013-07-04 08:14:00,69.0,57.6,30.04,SSW,203,5.8,6.4,67,0.00,,,0.00,WUHU215HW,2013-07-04 13:14:00,
2013-07-04 08:15:00,69.0,57.2,30.04,SSW,203,5.8,6.4,66,0.00,,,0.00,WUHU215HW,2013-07-04 13:15:00,
2013-07-04 08:19:00,69.4,57.5,30.04,WSW,248,0.0,6.4,66,0.00,,,0.00,WUHU215HW,2013-07-04 13:19:00,
2013-07-04 08:20:00,69.4,57.5,30.04,WSW,248,0.0,6.4,66,0.00,,,0.00,WUHU215HW,2013-07-04 13:20:00,
2013-07-04 08:22:00,69.6,57.7,30.04,SW,225,0.0,5.8,66,0.00,,,0.00,WUHU215HW,2013-07-04 13:22:00,
2013-07-04 08:26:00,69.9,58.0,30.04,SW,225,0.0,0.0,66,0.00,,,0.00,WUHU215HW,2013-07-04 13:26:00,
2013-07-04 08:27:00,69.9,58.0,30.04,SSE,158,0.0,0.0,66,0.00,,,0.00,WUHU215HW,2013-07-04 13:27:00,
2013-07-04 08:28:00,70.1,58.2,30.04,SW,225,0.0,0.0,66,0.00,,,0.00,WUHU215HW,2013-07-04 13:28:00,
2013-07-04 08:29:00,70.1,58.2,30.04,SW,225,0.0,0.0,66,0.00,,,0.00,WUHU215HW,2013-07-04 13:29:00,
2013-07-04 08:32:00,70.1,58.5,30.04,SSW,203,0.0,0.0,66,0.00,,,0.00,WUHU215HW,2013-07-04 13:32:00,
2013-07-04 08:34:00,70.7,58.3,30.04,WSW,248,0.0,0.0,65,0.00,,,0.00,WUHU215HW,2013-07-04 13:34:00,
2013-07-04 08:37:00,70.8,58.4,30.04,SSW,203,0.0,0.0,65,0.00,,,0.00,WUHU215HW,2013-07-04 13:37:00,
2013-07-04 08:39:00,71.0,58.4,30.04,NW,315,0.0,0.0,65,0.00,,,0.00,WUHU215HW,2013-07-04 13:39:00,
2013-07-04 08:40:00,71.0,58.4,30.04,NW,315,0.0,0.0,65,0.00,,,0.00,WUHU215HW,2013-07-04 13:40:00,
2013-07-04 08:42:00,71.2,58.4,30.04,SSE,158,0.0,0.0,65,0.00,,,0.00,WUHU215HW,2013-07-04 13:42:00,
2013-07-04 08:43:00,71.4,58.4,30.04,SSE,158,0.0,0.0,65,0.00,,,0.00,WUHU215HW,2013-07-04 13:43:00,
2013-07-04 08:44:00,71.4,58.4,30.04,SSE,158,0.0,0.0,65,0.00,,,0.00,WUHU215HW,2013-07-04 13:44:00,
2013-07-04 08:48:00,71.7,58.9,30.04,SSE,158,5.5,5.5,64,0.00,,,0.00,WUHU215HW,2013-07-04 13:48:00,
2013-07-04 08:49:00,71.7,59.0,30.04,SSE,158,5.5,5.5,64,0.00,,,0.00,WUHU215HW,2013-07-04 13:49:00,
2013-07-04 08:50:00,71.9,59.0,30.04,SSE,158,5.5,5.5,64,0.00,,,0.00,WUHU215HW,2013-07-04 13:50:00,
2013-07-04 08:51:00,71.9,59.0,30.04,West,270,0.0,5.5,64,0.00,,,0.00,WUHU215HW,2013-07-04 13:51:00,
2013-07-04 08:55:00,72.3,59.2,30.04,SSE,158,3.1,5.5,63,0.00,,,0.00,WUHU215HW,2013-07-04 13:55:00,
2013-07-04 08:56:00,72.3,59.2,30.04,SSE,158,2.5,5.5,63,0.00,,,0.00,WUHU215HW,2013-07-04 13:56:00,
2013-07-04 08:58:00,72.5,59.2,30.04,SSE,158,1.3,5.5,63,0.00,,,0.00,WUHU215HW,2013-07-04 13:58:00,
2013-07-04 09:00:00,72.6,59.2,30.04,SSE,158,1.3,3.1,63,0.00,,,0.00,WUHU215HW,2013-07-04 14:00:00,
2013-07-04 09:01:00,72.6,59.2,30.04,WSW,248,0.0,3.1,63,0.00,,,0.00,WUHU215HW,2013-07-04 14:01:00,
2013-07-04 09:02:00,72.8,59.4,30.04,WSW,248,0.0,3.1,63,0.00,,,0.00,WUHU215HW,2013-07-04 14:02:00,
2013-07-04 09:05:00,73.0,59.1,30.04,South,180,0.0,3.1,62,0.00,,,0.00,WUHU215HW,2013-07-04 14:05:00,
2013-07-04 09:06:00,73.0,59.1,30.04,WSW,248,0.0,1.3,62,0.00,,,0.00,WUHU215HW,2013-07-04 14:06:00,
2013-07-04 09:09:00,73.2,59.3,30.04,West,270,5.3,5.3,62,0.00,,,0.00,WUHU215HW,2013-07-04 14:09:00,
2013-07-04 09:11:00,73.2,59.3,30.04,West,270,5.3,5.3,61,0.00,,,0.00,WUHU215HW,2013-07-04 14:11:00,
2013-07-04 09:12:00,73.2,59.3,30.04,SE,135,0.0,5.3,61,0.00,,,0.00,WUHU215HW,2013-07-04 14:12:00,
2013-07-04 09:13:00,73.4,59.0,30.04,SE,135,0.0,5.3,61,0.00,,,0.00,WUHU215HW,2013-07-04 14:13:00,
2013-07-04 09:18:00,73.7,59.0,30.04,East,90,0.0,5.3,60,0.00,,,0.00,WUHU215HW,2013-07-04 14:18:00,
2013-07-04 09:19:00,73.9,59.1,30.04,East,90,0.0,5.3,60,0.00,,,0.00,WUHU215HW,2013-07-04 14:19:00,
2013-07-04 09:20:00,73.9,59.1,30.04,East,90,0.0,0.0,60,0.00,,,0.00,WUHU215HW,2013-07-04 14:20:00,
2013-07-04 09:22:00,73.9,59.1,30.04,ESE,113,2.0,2.0,60,0.00,,,0.00,WUHU215HW,2013-07-04 14:22:00,
2013-07-04 09:24:00,74.1,59.3,30.04,ESE,113,2.0,2.0,60,0.00,,,0.00,WUHU215HW,2013-07-04 14:24:00,
2013-07-04 09:26:00,74.3,59.5,30.04,ESE,113,2.0,2.0,60,0.00,,,0.00,WUHU215HW,2013-07-04 14:26:00,
2013-07-04 09:29:00,74.4,59.5,30.04,South,180,3.8,3.8,60,0.00,,,0.00,WUHU215HW,2013-07-04 14:29:00,
2013-07-04 09:30:00,74.4,59.5,30.04,South,180,3.8,3.8,60,0.00,,,0.00,WUHU215HW,2013-07-04 14:30:00,
2013-07-04 09:32:00,74.8,59.5,30.04,South,180,3.8,3.8,59,0.00,,,0.00,WUHU215HW,2013-07-04 14:32:00,
2013-07-04 09:35:00,75.0,59.7,30.04,SSE,158,1.1,3.8,59,0.00,,,0.00,WUHU215HW,2013-07-04 14:35:00,
2013-07-04 09:36:00,75.0,59.7,30.04,SSE,158,1.1,3.8,59,0.00,,,0.00,WUHU215HW,2013-07-04 14:36:00,
2013-07-04 09:37:00,75.0,59.7,30.04,SSE,158,1.1,3.8,59,0.00,,,0.00,WUHU215HW,2013-07-04 14:37:00,
2013-07-04 09:39:00,75.0,59.7,30.04,ESE,113,2.2,3.8,59,0.00,,,0.00,WUHU215HW,2013-07-04 14:39:00,
2013-07-04 09:41:00,75.3,60.0,30.04,ESE,113,2.2,3.8,59,0.00,,,0.00,WUHU215HW,2013-07-04 14:41:00,
2013-07-04 09:43:00,75.5,59.7,30.04,SW,225,0.0,2.2,58,0.00,,,0.00,WUHU215HW,2013-07-04 14:43:00,
2013-07-04 09:45:00,75.7,59.9,30.04,ESE,113,0.0,2.2,58,0.00,,,0.00,WUHU215HW,2013-07-04 14:45:00,
2013-07-04 09:46:00,75.7,59.9,30.04,ESE,113,0.0,2.2,58,0.00,,,0.00,WUHU215HW,2013-07-04 14:46:00,
2013-07-04 09:50:00,75.9,60.0,30.04,SSW,203,0.0,2.2,58,0.00,,,0.00,WUHU215HW,2013-07-04 14:50:00,
2013-07-04 09:51:00,76.2,60.4,30.04,SSW,203,0.0,0.0,58,0.00,,,0.00,WUHU215HW,2013-07-04 14:51:00,
2013-07-04 09:52:00,76.2,60.4,30.04,SSE,158,0.0,0.0,58,0.00,,,0.00,WUHU215HW,2013-07-04 14:52:00,
2013-07-04 09:53:00,76.2,60.4,30.04,SSE,158,0.0,0.0,58,0.00,,,0.00,WUHU215HW,2013-07-04 14:53:00,
2013-07-04 09:54:00,76.2,60.4,30.04,South,180,0.0,0.0,58,0.00,,,0.00,WUHU215HW,2013-07-04 14:54:00,
2013-07-04 09:56:00,76.2,60.4,30.04,West,270,0.0,0.0,58,0.00,,,0.00,WUHU215HW,2013-07-04 14:56:00,
2013-07-04 09:58:00,76.4,60.5,30.04,SSE,158,0.0,0.0,58,0.00,,,0.00,WUHU215HW,2013-07-04 14:58:00,
2013-07-04 09:59:00,76.4,60.5,30.04,SSE,158,0.0,0.0,58,0.00,,,0.00,WUHU215HW,2013-07-04 14:59:00,
2013-07-04 10:00:00,76.4,60.0,30.04,SE,135,0.0,0.0,57,0.00,,,0.00,WUHU215HW,2013-07-04 15:00:00,
2013-07-04 10:04:00,76.2,59.9,30.04,SE,135,3.1,3.1,57,0.00,,,0.00,WUHU215HW,2013-07-04 15:04:00,
2013-07-04 10:05:00,76.2,59.9,30.04,SE,135,3.1,3.1,57,0.00,,,0.00,WUHU215HW,2013-07-04 15:05:00,
2013-07-04 10:06:00,76.2,59.9,30.04,SSW,203,0.0,3.1,57,0.00,,,0.00,WUHU215HW,2013-07-04 15:06:00,
2013-07-04 10:10:00,75.9,60.0,30.04,WSW,248,0.0,3.1,58,0.00,,,0.00,WUHU215HW,2013-07-04 15:10:00,
2013-07-04 10:11:00,75.9,60.0,30.04,WSW,248,0.0,3.1,58,0.00,,,0.00,WUHU215HW,2013-07-04 15:11:00,
2013-07-04 10:12:00,75.9,60.0,30.04,WSW,248,0.0,3.1,58,0.00,,,0.00,WUHU215HW,2013-07-04 15:12:00,
2013-07-04 10:16:00,76.1,60.2,30.04,WSW,248,0.0,0.0,58,0.00,,,0.00,WUHU215HW,2013-07-04 15:16:00,
2013-07-04 10:17:00,76.1,60.2,30.04,WSW,248,0.0,0.0,58,0.00,,,0.00,WUHU215HW,2013-07-04 15:17:00,
2013-07-04 10:20:00,76.2,60.4,30.04,NE,45,5.1,5.1,58,0.00,,,0.00,WUHU215HW,2013-07-04 15:20:00,
2013-07-04 10:21:00,76.6,60.7,30.04,NE,45,5.1,5.1,58,0.00,,,0.00,WUHU215HW,2013-07-04 15:21:00,
2013-07-04 10:22:00,76.6,60.7,30.04,NE,45,5.1,5.1,58,0.00,,,0.00,WUHU215HW,2013-07-04 15:22:00,
2013-07-04 10:23:00,76.6,60.7,30.04,ESE,113,0.0,5.1,58,0.00,,,0.00,WUHU215HW,2013-07-04 15:23:00,
2013-07-04 10:24:00,76.6,60.7,30.04,ESE,113,0.0,5.1,58,0.00,,,0.00,WUHU215HW,2013-07-04 15:24:00,
2013-07-04 10:26:00,76.6,60.2,30.04,WSW,248,5.3,5.3,57,0.00,,,0.00,WUHU215HW,2013-07-04 15:26:00,
2013-07-04 10:29:00,76.8,60.3,30.04,WSW,248,5.3,5.3,57,0.00,,,0.00,WUHU215HW,2013-07-04 15:29:00,
2013-07-04 10:30:00,77.1,60.7,30.04,SSW,203,11.1,11.1,57,0.00,,,0.00,WUHU215HW,2013-07-04 15:30:00,
2013-07-04 10:31:00,77.1,60.7,30.04,SSW,203,11.1,11.1,57,0.00,,,0.00,WUHU215HW,2013-07-04 15:31:00,
2013-07-04 10:34:00,77.7,61.2,30.04,SE,135,12.5,12.5,57,0.00,,,0.00,WUHU215HW,2013-07-04 15:34:00,
2013-07-04 10:35:00,77.7,61.2,30.04,SE,135,12.5,12.5,57,0.00,,,0.00,WUHU215HW,2013-07-04 15:35:00,
2013-07-04 10:36:00,77.9,61.2,30.04,ENE,68,0.0,12.5,56,0.00,,,0.00,WUHU215HW,2013-07-04 15:36:00,
2013-07-04 10:39:00,78.0,61.2,30.04,WSW,248,4.2,12.5,56,0.00,,,0.00,WUHU215HW,2013-07-04 15:39:00,
2013-07-04 10:40:00,78.4,61.2,30.04,WSW,248,4.2,12.5,56,0.00,,,0.00,WUHU215HW,2013-07-04 15:40:00,
2013-07-04 10:43:00,78.4,61.2,30.04,ESE,113,9.3,12.5,56,0.00,,,0.00,WUHU215HW,2013-07-04 15:43:00,
2013-07-04 10:44:00,78.4,61.2,30.04,ESE,113,9.3,9.3,56,0.00,,,0.00,WUHU215HW,2013-07-04 15:44:00,
2013-07-04 10:46:00,78.4,61.4,30.04,ESE,113,9.3,9.3,56,0.00,,,0.00,WUHU215HW,2013-07-04 15:46:00,
2013-07-04 10:48:00,78.2,60.7,30.04,ESE,113,9.3,9.3,55,0.00,,,0.00,WUHU215HW,2013-07-04 15:48:00,
2013-07-04 10:49:00,78.4,60.9,30.04,SE,135,10.7,10.7,55,0.00,,,0.00,WUHU215HW,2013-07-04 15:49:00,
2013-07-04 10:53:00,78.4,60.9,30.04,SSE,158,0.0,10.7,55,0.00,,,0.00,WUHU215HW,2013-07-04 15:53:00,
2013-07-04 10:55:00,78.4,61.4,30.04,SSE,158,0.0,10.7,56,0.00,,,0.00,WUHU215HW,2013-07-04 15:55:00,
2013-07-04 10:56:00,78.6,61.5,30.04,SSE,158,0.0,10.7,56,0.00,,,0.00,WUHU215HW,2013-07-04 15:56:00,
2013-07-04 10:57:00,78.6,61.5,30.04,SSE,158,0.0,10.7,56,0.00,,,0.00,WUHU215HW,2013-07-04 15:57:00,
2013-07-04 10:58:00,78.9,61.9,30.04,SE,135,1.1,10.7,56,0.00,,,0.00,WUHU215HW,2013-07-04 15:58:00,
2013-07-04 11:00:00,78.9,61.4,30.04,SE,135,1.1,10.7,55,0.00,,,0.00,WUHU215HW,2013-07-04 16:00:00,
2013-07-04 11:03:00,79.3,61.7,30.04,SE,135,0.0,1.1,55,0.00,,,0.00,WUHU215HW,2013-07-04 16:03:00,
2013-07-04 11:04:00,79.3,61.7,30.04,South,180,14.5,14.5,55,0.00,,,0.00,WUHU215HW,2013-07-04 16:04:00,
2013-07-04 11:07:00,79.7,61.5,30.04,South,180,14.5,14.5,54,0.00,,,0.00,WUHU215HW,2013-07-04 16:07:00,
2013-07-04 11:08:00,79.7,61.5,30.04,SE,135,19.0,19.0,54,0.00,,,0.00,WUHU215HW,2013-07-04 16:08:00,
2013-07-04 11:09:00,79.7,61.5,30.04,SE,135,19.0,19.0,54,0.00,,,0.00,WUHU215HW,2013-07-04 16:09:00,
2013-07-04 11:10:00,79.7,61.5,30.04,SE,135,19.0,19.0,54,0.00,,,0.00,WUHU215HW,2013-07-04 16:10:00,
2013-07-04 11:12:00,79.8,61.5,30.04,SE,136,12.7,19.0,54,0.00,,,0.00,WUHU215HW,2013-07-04 16:12:00,
2013-07-04 11:14:00,79.8,61.7,30.04,SSW,203,0.6,19.0,54,0.00,,,0.00,WUHU215HW,2013-07-04 16:14:00,
2013-07-04 11:15:00,80.0,61.8,30.04,SSW,203,0.6,19.0,54,0.00,,,0.00,WUHU215HW,2013-07-04 16:15:00,
2013-07-04 11:16:00,80.0,61.8,30.04,SSW,203,0.6,19.0,54,0.00,,,0.00,WUHU215HW,2013-07-04 16:16:00,
2013-07-04 11:17:00,80.2,62.0,30.04,SE,135,0.6,19.0,54,0.00,,,0.00,WUHU215HW,2013-07-04 16:17:00,
2013-07-04 11:19:00,80.4,62.1,30.04,South,180,8.7,19.0,54,0.00,,,0.00,WUHU215HW,2013-07-04 16:19:00,
2013-07-04 11:22:00,80.7,62.5,30.04,South,180,15.4,15.4,54,0.00,,,0.00,WUHU215HW,2013-07-04 16:22:00,
2013-07-04 11:23:00,80.7,62.5,30.04,South,180,15.4,15.4,54,0.00,,,0.00,WUHU215HW,2013-07-04 16:23:00,
2013-07-04 11:24:00,81.1,62.3,30.04,South,180,15.4,15.4,53,0.00,,,0.00,WUHU215HW,2013-07-04 16:24:00,
2013-07-04 11:25:00,81.1,62.3,30.04,South,180,15.4,15.4,53,0.00,,,0.00,WUHU215HW,2013-07-04 16:25:00,
2013-07-04 11:28:00,81.3,62.4,30.04,SSW,203,17.2,17.2,53,0.00,,,0.00,WUHU215HW,2013-07-04 16:28:00,
2013-07-04 11:29:00,81.3,62.4,30.04,SSW,203,17.2,17.2,53,0.00,,,0.00,WUHU215HW,2013-07-04 16:29:00,
2013-07-04 11:30:00,81.3,62.4,30.04,SSW,203,17.2,17.2,53,0.00,,,0.00,WUHU215HW,2013-07-04 16:30:00,
2013-07-04 11:31:00,81.3,62.4,30.04,SSW,203,17.2,17.2,53,0.00,,,0.00,WUHU215HW,2013-07-04 16:31:00,
2013-07-04 11:36:00,81.6,62.2,30.04,WNW,293,6.0,20.8,52,0.00,,,0.00,WUHU215HW,2013-07-04 16:36:00,
2013-07-04 11:38:00,81.6,62.7,30.04,SSE,158,16.1,20.8,53,0.00,,,0.00,WUHU215HW,2013-07-04 16:38:00,
2013-07-04 11:39:00,81.6,62.7,30.04,SSE,158,16.1,20.8,53,0.00,,,0.00,WUHU215HW,2013-07-04 16:39:00,
2013-07-04 11:40:00,82.0,63.1,30.04,SSE,158,14.5,20.8,53,0.00,,,0.00,WUHU215HW,2013-07-04 16:40:00,
2013-07-04 11:41:00,82.0,63.1,30.04,SSE,158,13.0,20.8,53,0.00,,,0.00,WUHU215HW,2013-07-04 16:41:00,
2013-07-04 11:43:00,81.8,62.9,30.04,SSE,158,11.4,20.8,53,0.00,,,0.00,WUHU215HW,2013-07-04 16:43:00,
2013-07-04 11:45:00,81.6,62.9,30.04,WNW,293,0.0,16.1,53,0.00,,,0.00,WUHU215HW,2013-07-04 16:45:00,
2013-07-04 11:49:00,81.6,62.9,30.04,NW,315,2.9,16.1,53,0.00,,,0.00,WUHU215HW,2013-07-04 16:49:00,
2013-07-04 11:50:00,81.6,62.9,30.04,NW,315,2.9,11.4,53,0.00,,,0.00,WUHU215HW,2013-07-04 16:50:00,
2013-07-04 11:52:00,81.6,62.9,30.04,SW,225,7.1,7.1,52,0.00,,,0.00,WUHU215HW,2013-07-04 16:52:00,
2013-07-04 11:53:00,81.6,62.2,30.04,SW,226,5.0,7.1,52,0.00,,,0.00,WUHU215HW,2013-07-04 16:53:00,
2013-07-04 11:54:00,81.6,62.2,30.04,SW,229,2.9,7.1,52,0.00,,,0.00,WUHU215HW,2013-07-04 16:54:00,
2013-07-04 11:56:00,81.5,62.1,30.04,WSW,248,0.8,7.1,52,0.00,,,0.00,WUHU215HW,2013-07-04 16:56:00,
2013-07-04 11:59:00,81.6,62.2,30.04,WSW,248,0.0,7.1,52,0.00,,,0.00,WUHU215HW,2013-07-04 16:59:00,
2013-07-04 12:00:00,81.6,62.2,30.04,WSW,248,2.2,7.1,52,0.00,,,0.00,WUHU215HW,2013-07-04 17:00:00,
2013-07-04 12:01:00,81.6,62.2,30.04,WSW,248,2.2,7.1,52,0.00,,,0.00,WUHU215HW,2013-07-04 17:01:00,
2013-07-04 12:02:00,81.8,62.2,30.04,WSW,248,2.2,7.1,51,0.00,,,0.00,WUHU215HW,2013-07-04 17:02:00,
2013-07-04 12:03:00,81.8,62.2,30.04,WSW,248,2.2,2.2,51,0.00,,,0.00,WUHU215HW,2013-07-04 17:03:00,
2013-07-04 12:07:00,82.0,61.5,30.04,West,270,0.0,2.2,50,0.00,,,0.00,WUHU215HW,2013-07-04 17:07:00,
2013-07-04 12:08:00,82.2,61.7,30.04,South,180,1.5,2.2,50,0.00,,,0.00,WUHU215HW,2013-07-04 17:08:00,
2013-07-04 12:09:00,82.2,61.7,30.04,South,180,1.5,2.2,50,0.00,,,0.00,WUHU215HW,2013-07-04 17:09:00,
2013-07-04 12:11:00,82.2,61.7,30.04,West,270,19.2,19.2,50,0.00,,,0.00,WUHU215HW,2013-07-04 17:11:00,
2013-07-04 12:12:00,82.2,61.7,30.04,West,270,19.2,19.2,50,0.00,,,0.00,WUHU215HW,2013-07-04 17:12:00,
2013-07-04 12:14:00,82.5,61.7,30.04,West,261,10.8,19.2,50,0.00,,,0.00,WUHU215HW,2013-07-04 17:14:00,
2013-07-04 12:16:00,82.7,61.7,30.04,WSW,248,6.9,19.2,50,0.00,,,0.00,WUHU215HW,2013-07-04 17:16:00,
2013-07-04 12:17:00,82.9,61.7,30.04,WSW,248,1.3,19.2,49,0.00,,,0.00,WUHU215HW,2013-07-04 17:17:00,
2013-07-04 12:18:00,82.9,61.7,30.04,WSW,248,1.3,19.2,49,0.00,,,0.00,WUHU215HW,2013-07-04 17:18:00,
2013-07-04 12:22:00,83.1,61.9,30.04,West,270,0.0,19.2,49,0.00,,,0.00,WUHU215HW,2013-07-04 17:22:00,
2013-07-04 12:23:00,83.4,62.3,30.04,SW,225,6.0,6.9,49,0.00,,,0.00,WUHU215HW,2013-07-04 17:23:00,
2013-07-04 12:24:00,83.4,62.3,30.04,SW,225,6.0,6.9,49,0.00,,,0.00,WUHU215HW,2013-07-04 17:24:00,
2013-07-04 12:25:00,83.4,62.3,30.04,SW,224,4.0,6.0,49,0.00,,,0.00,WUHU215HW,2013-07-04 17:25:00,
2013-07-04 12:29:00,84.0,62.8,30.04,West,270,20.3,20.3,49,0.00,,,0.00,WUHU215HW,2013-07-04 17:29:00,
2013-07-04 12:30:00,84.0,62.8,30.04,West,265,17.6,20.3,49,0.00,,,0.00,WUHU215HW,2013-07-04 17:30:00,
2013-07-04 12:31:00,84.0,62.8,30.04,WSW,257,15.2,20.3,49,0.00,,,0.00,WUHU215HW,2013-07-04 17:31:00,
2013-07-04 12:34:00,84.5,63.3,30.04,NW,315,15.4,20.3,49,0.00,,,0.00,WUHU215HW,2013-07-04 17:34:00,
2013-07-04 12:36:00,84.7,63.3,30.04,WSW,248,17.2,20.3,49,0.00,,,0.00,WUHU215HW,2013-07-04 17:36:00,
2013-07-04 12:37:00,84.7,63.3,30.04,WSW,248,17.2,20.3,49,0.00,,,0.00,WUHU215HW,2013-07-04 17:37:00,
2013-07-04 12:38:00,84.7,63.3,30.04,SE,135,17.8,20.3,49,0.00,,,0.00,WUHU215HW,2013-07-04 17:38:00,
2013-07-04 12:40:00,85.2,63.3,30.04,SE,139,14.0,17.8,47,0.00,,,0.00,WUHU215HW,2013-07-04 17:40:00,
2013-07-04 12:42:00,85.2,63.3,30.04,South,180,13.1,17.8,47,0.00,,,0.00,WUHU215HW,2013-07-04 17:42:00,
2013-07-04 12:44:00,85.4,63.0,30.04,South,180,13.1,17.8,47,0.00,,,0.00,WUHU215HW,2013-07-04 17:44:00,
2013-07-04 12:45:00,85.6,63.0,30.04,South,180,13.1,17.8,47,0.00,,,0.00,WUHU215HW,2013-07-04 17:45:00,
2013-07-04 12:48:00,85.8,63.8,30.04,SSW,194,5.0,17.8,48,0.00,,,0.00,WUHU215HW,2013-07-04 17:48:00,
2013-07-04 12:49:00,86.1,63.5,30.04,SE,135,2.0,17.8,47,0.00,,,0.00,WUHU215HW,2013-07-04 17:49:00,
2013-07-04 12:50:00,86.1,63.5,30.04,SE,135,2.0,13.1,47,0.00,,,0.00,WUHU215HW,2013-07-04 17:50:00,
2013-07-04 12:51:00,86.1,63.5,30.04,SE,135,2.0,13.1,47,0.00,,,0.00,WUHU215HW,2013-07-04 17:51:00,
2013-07-04 12:55:00,86.3,63.1,30.04,ESE,113,3.8,13.1,46,0.00,,,0.00,WUHU215HW,2013-07-04 17:55:00,
2013-07-04 12:56:00,86.3,63.1,30.04,ESE,113,3.8,13.1,46,0.00,,,0.00,WUHU215HW,2013-07-04 17:56:00,
2013-07-04 12:57:00,86.3,63.1,30.04,ESE,113,3.8,3.8,46,0.00,,,0.00,WUHU215HW,2013-07-04 17:57:00,
2013-07-04 12:58:00,86.7,63.4,30.04,ESE,113,3.8,3.8,46,0.00,,,0.00,WUHU215HW,2013-07-04 17:58:00,
2013-07-04 13:00:00,86.7,63.4,30.04,SSE,158,14.5,14.5,46,0.00,,,0.00,WUHU215HW,2013-07-04 18:00:00,
2013-07-04 13:03:00,87.0,63.1,30.04,ESE,113,14.9,14.9,45,0.00,,,0.00,WUHU215HW,2013-07-04 18:03:00,
2013-07-04 13:05:00,87.2,63.2,30.04,South,180,10.5,14.9,45,0.00,,,0.00,WUHU215HW,2013-07-04 18:05:00,
2013-07-04 13:09:00,87.6,62.9,30.04,SSW,203,18.5,21.9,44,0.00,,,0.00,WUHU215HW,2013-07-04 18:09:00,
2013-07-04 13:10:00,87.8,63.1,30.04,SE,135,22.5,22.5,44,0.00,,,0.00,WUHU215HW,2013-07-04 18:10:00,
2013-07-04 13:11:00,87.8,63.1,30.04,SSE,168,14.3,22.5,44,0.00,,,0.00,WUHU215HW,2013-07-04 18:11:00,
2013-07-04 13:16:00,88.3,62.9,30.04,SSE,158,5.5,22.5,43,0.00,,,0.00,WUHU215HW,2013-07-04 18:16:00,
2013-07-04 13:17:00,88.3,62.9,30.04,SSE,158,5.5,22.5,43,0.00,,,0.00,WUHU215HW,2013-07-04 18:17:00,
2013-07-04 13:18:00,88.3,62.9,30.04,ESE,113,17.6,22.5,43,0.00,,,0.00,WUHU215HW,2013-07-04 18:18:00,
2013-07-04 13:21:00,88.5,63.1,30.04,ESE,123,5.5,17.6,43,0.00,,,0.00,WUHU215HW,2013-07-04 18:21:00,
2013-07-04 13:23:00,88.5,63.1,30.04,SW,232,0.4,17.6,42,0.00,,,0.00,WUHU215HW,2013-07-04 18:23:00,
2013-07-04 13:24:00,88.7,63.1,30.04,East,90,20.3,20.3,42,0.00,,,0.00,WUHU215HW,2013-07-04 18:24:00,
2013-07-04 13:26:00,88.8,62.7,30.04,East,90,20.3,20.3,43,0.00,,,0.00,WUHU215HW,2013-07-04 18:26:00,
2013-07-04 13:29:00,89.2,63.6,30.04,South,180,16.7,20.3,43,0.00,,,0.00,WUHU215HW,2013-07-04 18:29:00,
2013-07-04 13:30:00,89.2,63.6,30.04,SSE,158,23.0,23.0,43,0.00,,,0.00,WUHU215HW,2013-07-04 18:30:00,
2013-07-04 13:35:00,89.4,63.8,30.04,WSW,248,9.3,23.0,43,0.00,,,0.00,WUHU215HW,2013-07-04 18:35:00,
2013-07-04 13:36:00,89.7,64.1,30.04,East,90,7.1,23.0,43,0.00,,,0.00,WUHU215HW,2013-07-04 18:36:00,
2013-07-04 13:37:00,89.7,64.1,30.04,East,90,7.1,23.0,43,0.00,,,0.00,WUHU215HW,2013-07-04 18:37:00,
2013-07-04 13:38:00,89.7,63.5,30.04,East,100,5.2,23.0,42,0.00,,,0.00,WUHU215HW,2013-07-04 18:38:00,
2013-07-04 13:42:00,89.9,63.6,30.04,ESE,113,15.8,15.8,42,0.00,,,0.00,WUHU215HW,2013-07-04 18:42:00,
2013-07-04 13:43:00,89.9,63.6,30.04,ESE,113,15.8,15.8,42,0.00,,,0.00,WUHU215HW,2013-07-04 18:43:00,
2013-07-04 13:44:00,89.9,63.6,30.04,ESE,113,15.8,15.8,42,0.00,,,0.00,WUHU215HW,2013-07-04 18:44:00,
2013-07-04 13:46:00,90.3,64.0,30.04,SE,133,5.6,15.8,42,0.00,,,0.00,WUHU215HW,2013-07-04 18:46:00,
2013-07-04 13:47:00,90.3,64.0,30.04,SSW,197,2.5,15.8,42,0.00,,,0.00,WUHU215HW,2013-07-04 18:47:00,
2013-07-04 13:49:00,90.5,64.0,30.04,South,176,1.4,15.8,41,0.00,,,0.00,WUHU215HW,2013-07-04 18:49:00,
2013-07-04 13:52:00,90.6,64.0,30.04,SE,141,8.0,23.0,40,0.00,,,0.00,WUHU215HW,2013-07-04 18:52:00,
2013-07-04 13:53:00,90.6,64.0,30.04,SE,145,7.8,23.0,40,0.00,,,0.00,WUHU215HW,2013-07-04 18:53:00,
2013-07-04 13:54:00,90.8,63.1,30.04,WSW,248,14.5,23.0,40,0.00,,,0.00,WUHU215HW,2013-07-04 18:54:00,
2013-07-04 13:56:00,91.0,63.3,30.04,WSW,248,11.2,23.0,40,0.00,,,0.00,WUHU215HW,2013-07-04 18:56:00,
2013-07-04 13:58:00,91.2,63.3,30.04,WSW,248,4.6,23.0,40,0.00,,,0.00,WUHU215HW,2013-07-04 18:58:00,
2013-07-04 14:01:00,91.5,63.5,30.04,ENE,68,23.7,23.7,40,0.00,,,0.00,WUHU215HW,2013-07-04 19:01:00,
2013-07-04 14:03:00,91.7,63.1,30.04,SE,135,24.1,24.1,39,0.00,,,0.00,WUHU215HW,2013-07-04 19:03:00,
2013-07-04 14:04:00,91.7,63.1,30.04,ESE,102,19.9,24.1,39,0.00,,,0.00,WUHU215HW,2013-07-04 19:04:00,
2013-07-04 14:06:00,91.9,63.1,30.04,SW,225,7.6,24.1,39,0.00,,,0.00,WUHU215HW,2013-07-04 19:06:00,
2013-07-04 14:07:00,91.9,63.1,30.04,SW,225,7.6,24.1,39,0.00,,,0.00,WUHU215HW,2013-07-04 19:07:00,
2013-07-04 14:09:00,91.9,62.5,30.04,SW,225,7.6,24.1,38,0.00,,,0.00,WUHU215HW,2013-07-04 19:09:00,
2013-07-04 14:10:00,92.1,62.7,30.04,SW,225,7.6,24.1,38,0.00,,,0.00,WUHU215HW,2013-07-04 19:10:00,
2013-07-04 14:12:00,92.1,62.7,30.04,South,188,3.2,24.1,38,0.00,,,0.00,WUHU215HW,2013-07-04 19:12:00,
2013-07-04 14:13:00,92.1,62.7,30.04,SE,135,8.7,24.1,38,0.00,,,0.00,WUHU215HW,2013-07-04 19:13:00,
2013-07-04 14:15:00,91.7,62.7,30.04,SE,135,8.7,8.7,38,0.00,,,0.00,WUHU215HW,2013-07-04 19:15:00,
2013-07-04 14:16:00,91.7,62.7,30.04,SE,135,8.7,8.7,38,0.00,,,0.00,WUHU215HW,2013-07-04 19:16:00,
2013-07-04 14:21:00,91.4,62.7,30.04,WSW,248,18.3,19.0,39,0.00,,,0.00,WUHU215HW,2013-07-04 19:21:00,
2013-07-04 14:22:00,91.4,62.7,30.04,WSW,248,18.3,19.0,39,0.00,,,0.00,WUHU215HW,2013-07-04 19:22:00,
2013-07-04 14:24:00,91.5,63.0,30.04,WSW,248,18.3,19.0,39,0.00,,,0.00,WUHU215HW,2013-07-04 19:24:00,
2013-07-04 14:25:00,91.5,63.0,30.04,WSW,248,18.3,19.0,39,0.00,,,0.00,WUHU215HW,2013-07-04 19:25:00,
2013-07-04 14:27:00,91.9,63.0,30.04,WSW,242,12.8,19.0,39,0.00,,,0.00,WUHU215HW,2013-07-04 19:27:00,
2013-07-04 14:31:00,92.3,63.6,30.04,SSE,158,6.0,18.3,39,0.00,,,0.00,WUHU215HW,2013-07-04 19:31:00,
2013-07-04 14:32:00,92.3,63.6,30.04,SSW,203,25.5,25.5,39,0.00,,,0.00,WUHU215HW,2013-07-04 19:32:00,
2013-07-04 14:33:00,92.3,63.6,30.04,SSE,158,17.0,25.5,39,0.00,,,0.00,WUHU215HW,2013-07-04 19:33:00,
2013-07-04 14:35:00,92.6,63.6,30.04,SW,225,23.9,25.5,38,0.00,,,0.00,WUHU215HW,2013-07-04 19:35:00,
2013-07-04 14:36:00,92.6,63.6,30.04,SW,225,23.9,25.5,38,0.00,,,0.00,WUHU215HW,2013-07-04 19:36:00,
2013-07-04 14:38:00,93.0,63.5,30.04,SW,231,10.9,25.5,38,0.00,,,0.00,WUHU215HW,2013-07-04 19:38:00,
2013-07-04 14:40:00,93.0,63.5,30.04,WSW,255,2.2,25.5,38,0.00,,,0.00,WUHU215HW,2013-07-04 19:40:00,
2013-07-04 14:43:00,93.0,63.5,30.04,SSE,158,0.8,23.9,37,0.00,,,0.00,WUHU215HW,2013-07-04 19:43:00,
2013-07-04 14:44:00,93.3,63.5,30.04,WSW,248,18.3,23.9,37,0.00,,,0.00,WUHU215HW,2013-07-04 19:44:00,
2013-07-04 14:46:00,93.3,63.5,30.04,WSW,248,18.3,23.9,37,0.00,,,0.00,WUHU215HW,2013-07-04 19:46:00,
2013-07-04 14:47:00,93.3,63.5,30.04,WSW,248,18.3,18.3,36,0.00,,,0.00,WUHU215HW,2013-07-04 19:47:00,
2013-07-04 14:48:00,93.5,63.5,30.04,WSW,247,12.4,18.3,37,0.00,,,0.00,WUHU215HW,2013-07-04 19:48:00,
2013-07-04 14:49:00,93.5,63.5,30.04,WSW,244,6.5,18.3,37,0.00,,,0.00,WUHU215HW,2013-07-04 19:49:00,
2013-07-04 14:53:00,93.5,63.5,30.04,ESE,123,8.2,19.9,37,0.00,,,0.00,WUHU215HW,2013-07-04 19:53:00,
2013-07-04 14:54:00,93.5,63.5,30.04,SSE,154,2.5,19.9,37,0.00,,,0.00,WUHU215HW,2013-07-04 19:54:00,
2013-07-04 14:55:00,93.9,63.5,30.04,SSE,147,1.9,19.9,37,0.00,,,0.00,WUHU215HW,2013-07-04 19:55:00,
2013-07-04 14:59:00,93.9,63.5,30.04,SE,135,1.7,19.9,37,0.00,,,0.00,WUHU215HW,2013-07-04 19:59:00,
2013-07-04 15:00:00,93.9,63.5,30.04,SE,135,1.7,19.9,37,0.00,,,0.00,WUHU215HW,2013-07-04 20:00:00,
2013-07-04 15:05:00,93.9,63.5,30.04,NW,315,3.8,3.8,37,0.00,,,0.00,WUHU215HW,2013-07-04 20:05:00,
2013-07-04 15:06:00,93.9,63.5,30.04,NW,315,3.8,3.8,37,0.00,,,0.00,WUHU215HW,2013-07-04 20:06:00,
2013-07-04 15:14:00,94.1,63.5,30.04,SSE,158,12.3,12.3,36,0.00,,,0.00,WUHU215HW,2013-07-04 20:14:00,
2013-07-04 15:15:00,94.1,63.5,30.04,SSE,158,12.3,12.3,36,0.00,,,0.00,WUHU215HW,2013-07-04 20:15:00,
2013-07-04 15:16:00,94.2,63.5,30.04,SSE,158,8.3,12.3,36,0.00,,,0.00,WUHU215HW,2013-07-04 20:16:00,
2013-07-04 15:21:00,94.2,63.5,30.04,SW,219,9.0,22.5,35,0.00,,,0.00,WUHU215HW,2013-07-04 20:21:00,
2013-07-04 15:22:00,94.2,63.5,30.04,SW,231,11.0,22.5,35,0.00,,,0.00,WUHU215HW,2013-07-04 20:22:00,
2013-07-04 15:23:00,94.2,63.5,30.04,South,180,11.4,22.5,34,0.00,,,0.00,WUHU215HW,2013-07-04 20:23:00,
2013-07-04 15:26:00,94.2,63.5,30.04,South,180,11.4,22.5,34,0.00,,,0.00,WUHU215HW,2013-07-04 20:26:00,
2013-07-04 15:28:00,94.2,63.5,30.04,South,183,8.8,22.5,34,0.00,,,0.00,WUHU215HW,2013-07-04 20:28:00,
2013-07-04 15:29:00,94.1,63.5,30.04,South,189,6.2,22.5,35,0.00,,,0.00,WUHU215HW,2013-07-04 20:29:00,
2013-07-04 15:32:00,94.1,63.5,30.04,South,184,1.2,11.4,35,0.00,,,0.00,WUHU215HW,2013-07-04 20:32:00,
2013-07-04 15:33:00,94.1,63.5,30.04,East,90,0.6,11.4,35,0.00,,,0.00,WUHU215HW,2013-07-04 20:33:00,
2013-07-04 15:34:00,94.1,61.2,30.04,NE,45,13.1,13.1,34,0.00,,,0.00,WUHU215HW,2013-07-04 20:34:00,
2013-07-04 15:36:00,93.9,61.2,30.04,NE,45,7.8,13.1,35,0.00,,,0.00,WUHU215HW,2013-07-04 20:36:00,
2013-07-04 15:39:00,93.9,61.2,30.04,SSW,203,8.2,13.1,34,0.00,,,0.00,WUHU215HW,2013-07-04 20:39:00,
2013-07-04 15:41:00,93.9,61.2,30.04,SSW,203,8.2,13.1,34,0.00,,,0.00,WUHU215HW,2013-07-04 20:41:00,
2013-07-04 15:42:00,93.9,61.0,30.04,ENE,68,28.6,28.6,34,0.00,,,0.00,WUHU215HW,2013-07-04 20:42:00,
2013-07-04 15:43:00,93.7,61.0,30.04,East,96,10.0,28.6,34,0.00,,,0.00,WUHU215HW,2013-07-04 20:43:00,
2013-07-04 15:44:00,93.7,61.0,30.04,East,93,13.1,28.6,34,0.00,,,0.00,WUHU215HW,2013-07-04 20:44:00,
2013-07-04 15:46:00,93.7,61.0,30.04,SSW,203,10.7,28.6,34,0.00,,,0.00,WUHU215HW,2013-07-04 20:46:00,
2013-07-04 15:47:00,93.5,61.0,30.04,SSW,203,10.7,28.6,34,0.00,,,0.00,WUHU215HW,2013-07-04 20:47:00,
2013-07-04 15:48:00,93.5,61.0,30.04,SSW,203,10.7,28.6,34,0.00,,,0.00,WUHU215HW,2013-07-04 20:48:00,
2013-07-04 15:51:00,93.5,61.0,30.04,SSW,203,3.8,28.6,35,0.00,,,0.00,WUHU215HW,2013-07-04 20:51:00,
2013-07-04 15:53:00,93.5,61.0,30.04,SSW,203,7.8,10.7,34,0.00,,,0.00,WUHU215HW,2013-07-04 20:53:00,
2013-07-04 15:55:00,93.5,61.0,30.04,SSW,203,7.8,10.7,34,0.00,,,0.00,WUHU215HW,2013-07-04 20:55:00,
2013-07-04 15:56:00,93.3,61.0,30.04,SSW,203,6.3,10.7,34,0.00,,,0.00,WUHU215HW,2013-07-04 20:56:00,
2013-07-04 15:58:00,93.0,60.6,30.04,SW,225,26.1,26.1,34,0.00,,,0.00,WUHU215HW,2013-07-04 20:58:00,
2013-07-04 15:59:00,93.0,60.2,30.04,SW,225,26.1,26.1,34,0.00,,,0.00,WUHU215HW,2013-07-04 20:59:00,
2013-07-04 16:00:00,93.0,60.2,30.04,SW,225,26.1,26.1,34,0.00,,,0.00,WUHU215HW,2013-07-04 21:00:00,
2013-07-04 16:04:00,92.8,60.1,30.04,SW,225,8.1,26.1,34,0.00,,,0.00,WUHU215HW,2013-07-04 21:04:00,
2013-07-04 16:05:00,92.4,59.8,30.04,SW,222,4.9,26.1,34,0.00,,,0.00,WUHU215HW,2013-07-04 21:05:00,
2013-07-04 16:10:00,92.0,60.3,30.04,SSE,158,0.2,26.1,35,0.00,,,0.00,WUHU215HW,2013-07-04 21:10:00,
2013-07-04 16:11:00,91.9,60.3,30.04,West,270,0.0,11.6,35,0.00,,,0.00,WUHU215HW,2013-07-04 21:11:00,
2013-07-04 16:12:00,91.7,60.1,30.04,West,270,0.0,11.6,35,0.00,,,0.00,WUHU215HW,2013-07-04 21:12:00,
2013-07-04 16:14:00,91.4,60.6,30.04,West,270,0.0,2.0,36,0.00,,,0.00,WUHU215HW,2013-07-04 21:14:00,
2013-07-04 16:18:00,91.0,60.2,30.04,NNW,338,0.6,0.6,36,0.00,,,0.00,WUHU215HW,2013-07-04 21:18:00,
2013-07-04 16:19:00,90.9,60.2,30.04,NNW,338,0.6,0.6,36,0.00,,,0.00,WUHU215HW,2013-07-04 21:19:00,
2013-07-04 16:22:00,90.5,59.0,30.04,West,269,1.1,1.7,35,0.00,,,0.00,WUHU215HW,2013-07-04 21:22:00,
2013-07-04 16:23:00,90.4,58.9,30.04,West,263,0.4,1.7,35,0.00,,,0.00,WUHU215HW,2013-07-04 21:23:00,
2013-07-04 16:24:00,90.2,58.7,30.04,West,270,0.6,1.7,35,0.00,,,0.00,WUHU215HW,2013-07-04 21:24:00,
2013-07-04 16:26:00,89.7,58.3,30.04,West,270,0.6,1.7,35,0.00,,,0.00,WUHU215HW,2013-07-04 21:26:00,
2013-07-04 16:27:00,89.6,58.2,30.04,SE,135,1.5,1.7,35,0.00,,,0.00,WUHU215HW,2013-07-04 21:27:00,
2013-07-04 16:32:00,88.7,57.4,30.04,SSW,203,4.6,4.6,35,0.00,,,0.00,WUHU215HW,2013-07-04 21:32:00,
2013-07-04 16:33:00,88.3,57.1,30.04,SSW,203,4.6,4.6,35,0.00,,,0.00,WUHU215HW,2013-07-04 21:33:00,
2013-07-04 16:34:00,88.3,57.1,30.04,SSW,203,4.6,4.6,35,0.00,,,0.00,WUHU215HW,2013-07-04 21:34:00,
2013-07-04 16:35:00,88.2,57.0,30.04,SW,225,17.4,17.4,35,0.00,,,0.00,WUHU215HW,2013-07-04 21:35:00,
2013-07-04 16:37:00,87.7,57.4,30.04,SW,230,12.7,17.4,36,0.00,,,0.00,WUHU215HW,2013-07-04 21:37:00,
2013-07-04 16:38:00,87.7,57.3,30.04,WSW,240,8.3,17.4,36,0.00,,,0.00,WUHU215HW,2013-07-04 21:38:00,
2013-07-04 16:39:00,87.6,57.3,30.04,West,270,4.6,17.4,36,0.00,,,0.00,WUHU215HW,2013-07-04 21:39:00,
2013-07-04 16:40:00,87.6,57.3,30.04,West,270,4.6,17.4,36,0.00,,,0.00,WUHU215HW,2013-07-04 21:40:00,
2013-07-04 16:43:00,87.1,56.8,30.04,WSW,248,20.3,20.3,36,0.00,,,0.00,WUHU215HW,2013-07-04 21:43:00,
2013-07-04 16:44:00,86.9,56.7,30.04,WSW,247,13.5,20.3,36,0.00,,,0.00,WUHU215HW,2013-07-04 21:44:00,
2013-07-04 16:49:00,86.5,57.1,30.04,SW,225,16.3,27.5,37,0.00,,,0.00,WUHU215HW,2013-07-04 21:49:00,
2013-07-04 16:50:00,86.5,57.0,30.04,SW,225,12.6,27.5,37,0.00,,,0.00,WUHU215HW,2013-07-04 21:50:00,
2013-07-04 16:54:00,86.1,56.7,30.04,South,180,18.3,27.5,37,0.00,,,0.00,WUHU215HW,2013-07-04 21:54:00,
2013-07-04 16:55:00,86.1,56.7,30.04,South,180,18.3,27.5,37,0.00,,,0.00,WUHU215HW,2013-07-04 21:55:00,
2013-07-04 16:57:00,86.0,56.6,30.04,ENE,68,21.2,27.5,37,0.00,,,0.00,WUHU215HW,2013-07-04 21:57:00,
2013-07-04 16:58:00,85.8,56.4,30.04,WSW,248,24.8,27.5,37,0.00,,,0.00,WUHU215HW,2013-07-04 21:58:00,
2013-07-04 17:00:00,85.7,57.1,30.04,SW,235,21.5,24.8,38,0.00,,,0.00,WUHU215HW,2013-07-04 22:00:00,
2013-07-04 17:03:00,85.4,56.9,30.04,SSW,203,19.2,24.8,38,0.00,,,0.00,WUHU215HW,2013-07-04 22:03:00,
2013-07-04 17:04:00,85.4,56.8,30.04,SSE,158,0.0,24.8,38,0.00,,,0.00,WUHU215HW,2013-07-04 22:04:00,
2013-07-04 17:05:00,85.4,56.8,30.04,SW,225,0.0,24.8,38,0.00,,,0.00,WUHU215HW,2013-07-04 22:05:00,
2013-07-04 17:06:00,85.3,56.8,30.04,SW,225,0.0,24.8,38,0.00,,,0.00,WUHU215HW,2013-07-04 22:06:00,
2013-07-04 17:09:00,85.3,56.7,30.04,SSW,203,0.0,24.8,38,0.00,,,0.00,WUHU215HW,2013-07-04 22:09:00,
2013-07-04 17:10:00,85.2,56.7,30.04,SW,225,2.0,19.2,38,0.00,,,0.00,WUHU215HW,2013-07-04 22:10:00,
2013-07-04 17:12:00,85.2,56.6,30.04,SW,225,2.0,2.0,38,0.00,,,0.00,WUHU215HW,2013-07-04 22:12:00,
2013-07-04 17:13:00,85.2,56.6,30.04,SW,225,2.0,2.0,38,0.00,,,0.00,WUHU215HW,2013-07-04 22:13:00,
2013-07-04 17:16:00,85.1,57.3,30.04,SSE,158,0.0,2.0,39,0.00,,,0.00,WUHU215HW,2013-07-04 22:16:00,
2013-07-04 17:17:00,85.1,57.3,30.04,SSE,158,0.0,2.0,39,0.00,,,0.00,WUHU215HW,2013-07-04 22:17:00,
2013-07-04 17:18:00,85.1,56.5,30.04,South,180,0.6,2.0,38,0.00,,,0.00,WUHU215HW,2013-07-04 22:18:00,
2013-07-04 17:20:00,85.0,56.5,30.04,SSW,203,1.5,2.0,38,0.00,,,0.00,WUHU215HW,2013-07-04 22:20:00,
2013-07-04 17:21:00,85.0,56.5,30.04,SSW,196,1.0,2.0,38,0.00,,,0.00,WUHU215HW,2013-07-04 22:21:00,
2013-07-04 17:23:00,84.7,56.2,30.04,SE,135,0.0,2.0,38,0.00,,,0.00,WUHU215HW,2013-07-04 22:23:00,
2013-07-04 17:24:00,84.7,56.2,30.04,SE,135,0.0,1.5,38,0.00,,,0.00,WUHU215HW,2013-07-04 22:24:00,
2013-07-04 17:26:00,84.7,56.2,30.04,SE,135,0.8,1.5,38,0.00,,,0.00,WUHU215HW,2013-07-04 22:26:00,
2013-07-04 17:29:00,84.6,56.1,30.04,West,270,7.6,7.6,38,0.00,,,0.00,WUHU215HW,2013-07-04 22:29:00,
2013-07-04 17:31:00,84.4,56.0,30.04,West,270,7.6,7.6,38,0.00,,,0.00,WUHU215HW,2013-07-04 22:31:00,
2013-07-04 17:32:00,84.4,55.9,30.04,West,270,7.6,7.6,38,0.00,,,0.00,WUHU215HW,2013-07-04 22:32:00,
2013-07-04 17:35:00,84.4,55.9,30.04,NNE,23,0.0,7.6,38,0.00,,,0.00,WUHU215HW,2013-07-04 22:35:00,
2013-07-04 17:37:00,84.2,55.8,30.04,SE,135,10.9,10.9,38,0.00,,,0.00,WUHU215HW,2013-07-04 22:37:00,
2013-07-04 17:39:00,84.2,55.8,30.04,South,180,10.7,10.9,38,0.00,,,0.00,WUHU215HW,2013-07-04 22:39:00,
2013-07-04 17:40:00,84.2,55.8,30.04,South,178,7.9,10.9,38,0.00,,,0.00,WUHU215HW,2013-07-04 22:40:00,
2013-07-04 17:41:00,84.2,55.8,30.04,South,173,5.2,10.9,38,0.00,,,0.00,WUHU215HW,2013-07-04 22:41:00,
2013-07-04 17:44:00,84.2,55.8,30.04,SW,225,6.0,10.9,38,0.00,,,0.00,WUHU215HW,2013-07-04 22:44:00,
2013-07-04 17:45:00,84.2,55.8,30.04,SW,225,6.0,10.9,38,0.00,,,0.00,WUHU215HW,2013-07-04 22:45:00,
2013-07-04 17:46:00,84.2,55.8,30.04,SW,225,6.0,10.9,38,0.00,,,0.00,WUHU215HW,2013-07-04 22:46:00,
2013-07-04 17:48:00,84.2,55.8,30.04,SW,225,6.0,10.7,38,0.00,,,0.00,WUHU215HW,2013-07-04 22:48:00,
2013-07-04 17:49:00,84.1,55.6,30.04,SSW,203,14.7,14.7,38,0.00,,,0.00,WUHU215HW,2013-07-04 22:49:00,
2013-07-04 17:53:00,84.0,56.3,30.04,South,180,2.9,14.7,39,0.00,,,0.00,WUHU215HW,2013-07-04 22:53:00,
2013-07-04 17:54:00,84.0,56.3,30.04,South,180,2.9,14.7,39,0.00,,,0.00,WUHU215HW,2013-07-04 22:54:00,
2013-07-04 17:55:00,84.0,56.3,30.04,South,180,2.9,14.7,39,0.00,,,0.00,WUHU215HW,2013-07-04 22:55:00,
2013-07-04 17:56:00,84.1,56.4,30.04,South,180,2.9,14.7,39,0.00,,,0.00,WUHU215HW,2013-07-04 22:56:00,
2013-07-04 18:01:00,83.9,56.3,30.04,NW,312,3.1,10.5,39,0.00,,,0.00,WUHU215HW,2013-07-04 23:01:00,
2013-07-04 18:02:00,84.0,56.3,30.04,SSE,158,0.6,10.5,39,0.00,,,0.00,WUHU215HW,2013-07-04 23:02:00,
2013-07-04 18:04:00,84.0,55.6,30.04,South,180,0.0,10.5,38,0.00,,,0.00,WUHU215HW,2013-07-04 23:04:00,
2013-07-04 18:05:00,84.0,55.6,30.04,South,180,0.0,10.5,38,0.00,,,0.00,WUHU215HW,2013-07-04 23:05:00,
2013-07-04 18:07:00,84.1,55.7,30.04,South,180,0.0,10.5,38,0.00,,,0.00,WUHU215HW,2013-07-04 23:07:00,
2013-07-04 18:09:00,83.9,55.5,30.04,SSW,203,0.0,10.5,38,0.00,,,0.00,WUHU215HW,2013-07-04 23:09:00,
2013-07-04 18:10:00,84.0,55.5,30.04,SSW,203,0.0,0.6,38,0.00,,,0.00,WUHU215HW,2013-07-04 23:10:00,
2013-07-04 18:12:00,84.0,56.3,30.04,SSW,203,0.0,0.0,39,0.00,,,0.00,WUHU215HW,2013-07-04 23:12:00,
2013-07-04 18:13:00,83.9,56.2,30.04,SSE,158,0.0,0.0,39,0.00,,,0.00,WUHU215HW,2013-07-04 23:13:00,
2013-07-04 18:14:00,83.9,56.2,30.04,SSE,158,0.0,0.0,39,0.00,,,0.00,WUHU215HW,2013-07-04 23:14:00,
2013-07-04 18:16:00,83.9,56.3,30.04,South,180,2.9,2.9,39,0.00,,,0.00,WUHU215HW,2013-07-04 23:16:00,
2013-07-04 18:18:00,83.8,56.1,30.04,North,0,11.1,11.1,39,0.00,,,0.00,WUHU215HW,2013-07-04 23:18:00,
2013-07-04 18:21:00,83.9,56.2,30.04,WSW,248,1.3,11.1,39,0.00,,,0.00,WUHU215HW,2013-07-04 23:21:00,
2013-07-04 18:22:00,84.0,56.3,30.04,WSW,248,1.3,11.1,39,0.00,,,0.00,WUHU215HW,2013-07-04 23:22:00,
2013-07-04 18:25:00,84.0,56.3,30.04,South,180,14.3,14.3,39,0.00,,,0.00,WUHU215HW,2013-07-04 23:25:00,
2013-07-04 18:28:00,83.9,56.2,30.04,SSE,158,4.9,14.3,39,0.00,,,0.00,WUHU215HW,2013-07-04 23:28:00,
2013-07-04 18:30:00,84.0,56.3,30.04,SSE,158,6.0,14.3,39,0.00,,,0.00,WUHU215HW,2013-07-04 23:30:00,
2013-07-04 18:32:00,84.1,56.4,30.04,SSE,158,12.5,14.3,39,0.00,,,0.00,WUHU215HW,2013-07-04 23:32:00,
2013-07-04 18:35:00,84.0,56.3,30.04,SSE,158,12.5,14.3,39,0.00,,,0.00,WUHU215HW,2013-07-04 23:35:00,
2013-07-04 18:36:00,84.0,57.1,30.04,WNW,293,0.0,12.5,40,0.00,,,0.00,WUHU215HW,2013-07-04 23:36:00,
2013-07-04 18:41:00,84.3,58.0,30.04,South,180,0.0,12.5,41,0.00,,,0.00,WUHU215HW,2013-07-04 23:41:00,
2013-07-04 18:42:00,84.3,58.0,30.04,South,180,0.0,12.5,41,0.00,,,0.00,WUHU215HW,2013-07-04 23:42:00,
2013-07-04 18:43:00,84.3,58.0,30.04,SSE,158,6.2,12.5,41,0.00,,,0.00,WUHU215HW,2013-07-04 23:43:00,
2013-07-04 18:47:00,84.3,58.0,30.04,SSE,158,6.2,6.2,41,0.00,,,0.00,WUHU215HW,2013-07-04 23:47:00,
2013-07-04 18:49:00,84.2,57.2,30.04,South,180,14.0,20.5,40,0.00,,,0.00,WUHU215HW,2013-07-04 23:49:00,
2013-07-04 18:50:00,84.3,57.3,30.04,South,171,15.9,20.5,40,0.00,,,0.00,WUHU215HW,2013-07-04 23:50:00,
2013-07-04 18:53:00,84.4,57.4,30.04,South,180,14.0,20.5,40,0.00,,,0.00,WUHU215HW,2013-07-04 23:53:00,
2013-07-04 18:54:00,84.5,57.5,30.04,South,180,14.0,20.5,40,0.00,,,0.00,WUHU215HW,2013-07-04 23:54:00,
2013-07-04 18:55:00,84.5,57.5,30.04,South,180,14.0,20.5,40,0.00,,,0.00,WUHU215HW,2013-07-04 23:55:00,
2013-07-04 18:59:00,84.6,59.0,30.04,SSE,158,0.0,14.0,42,0.00,,,0.00,WUHU215HW,2013-07-04 23:59:00,
2013-07-04 19:00:00,84.7,59.1,30.04,SSE,158,0.0,14.0,42,0.00,,,0.00,WUHU215HW,2013-07-05 00:00:00,
2013-07-04 19:01:00,84.8,59.1,30.04,SE,135,9.1,14.0,42,0.00,,,0.00,WUHU215HW,2013-07-05 00:01:00,
2013-07-04 19:03:00,84.9,59.2,30.04,SSW,203,20.1,20.1,42,0.00,,,0.00,WUHU215HW,2013-07-05 00:03:00,
2013-07-04 19:04:00,84.7,59.1,30.04,SSW,203,20.1,20.1,42,0.00,,,0.00,WUHU215HW,2013-07-05 00:04:00,
2013-07-04 19:07:00,84.9,59.2,30.04,SW,225,11.8,20.1,42,0.00,,,0.00,WUHU215HW,2013-07-05 00:07:00,
2013-07-04 19:08:00,84.7,59.2,30.04,SW,225,11.8,20.1,42,0.00,,,0.00,WUHU215HW,2013-07-05 00:08:00,
2013-07-04 19:09:00,84.7,59.1,30.04,SW,225,11.8,20.1,42,0.00,,,0.00,WUHU215HW,2013-07-05 00:09:00,
2013-07-04 19:11:00,84.7,59.1,30.04,SSW,203,8.0,20.1,42,0.00,,,0.00,WUHU215HW,2013-07-05 00:11:00,
2013-07-04 19:12:00,84.7,59.1,30.04,SSW,203,8.0,20.1,42,0.00,,,0.00,WUHU215HW,2013-07-05 00:12:00,
2013-07-04 19:14:00,84.7,59.1,30.04,SE,135,17.0,17.0,42,0.00,,,0.00,WUHU215HW,2013-07-05 00:14:00,
2013-07-04 19:15:00,84.5,58.3,30.04,SE,135,17.0,17.0,41,0.00,,,0.00,WUHU215HW,2013-07-05 00:15:00,
2013-07-04 19:16:00,84.5,58.3,30.04,SE,135,17.0,17.0,41,0.00,,,0.00,WUHU215HW,2013-07-05 00:16:00,
2013-07-04 19:20:00,84.3,58.9,30.04,WSW,238,6.0,17.0,42,0.00,,,0.00,WUHU215HW,2013-07-05 00:20:00,
2013-07-04 19:21:00,84.3,58.9,30.04,SSW,203,2.0,17.0,42,0.00,,,0.00,WUHU215HW,2013-07-05 00:21:00,
2013-07-04 19:23:00,84.0,58.9,30.04,SSW,203,2.0,17.0,42,0.00,,,0.00,WUHU215HW,2013-07-05 00:23:00,
2013-07-04 19:26:00,84.0,58.9,30.04,SE,135,7.3,14.9,42,0.00,,,0.00,WUHU215HW,2013-07-05 00:26:00,
2013-07-04 19:27:00,84.0,58.9,30.04,SE,135,7.3,14.9,42,0.00,,,0.00,WUHU215HW,2013-07-05 00:27:00,
2013-07-04 19:28:00,84.0,58.4,30.04,SE,135,7.3,14.9,42,0.00,,,0.00,WUHU215HW,2013-07-05 00:28:00,
2013-07-04 19:29:00,84.0,58.4,30.04,SE,135,7.3,7.3,42,0.00,,,0.00,WUHU215HW,2013-07-05 00:29:00,
2013-07-04 19:32:00,84.0,58.4,30.04,SE,135,2.2,7.3,41,0.00,,,0.00,WUHU215HW,2013-07-05 00:32:00,
2013-07-04 19:33:00,84.0,58.4,30.04,SE,135,2.2,7.3,41,0.00,,,0.00,WUHU215HW,2013-07-05 00:33:00,
2013-07-04 19:34:00,83.8,58.4,30.04,SW,225,17.2,17.2,41,0.00,,,0.00,WUHU215HW,2013-07-05 00:34:00,
2013-07-04 19:36:00,83.4,58.5,30.04,SW,225,17.2,17.2,43,0.00,,,0.00,WUHU215HW,2013-07-05 00:36:00,
2013-07-04 19:39:00,83.4,58.5,30.04,SW,214,11.4,17.2,43,0.00,,,0.00,WUHU215HW,2013-07-05 00:39:00,
2013-07-04 19:40:00,83.3,58.5,30.04,SSW,203,8.9,17.2,43,0.00,,,0.00,WUHU215HW,2013-07-05 00:40:00,
2013-07-04 19:41:00,83.3,58.4,30.04,SSW,203,8.9,17.2,43,0.00,,,0.00,WUHU215HW,2013-07-05 00:41:00,
2013-07-04 19:42:00,83.3,58.4,30.04,SSW,203,8.9,17.2,43,0.00,,,0.00,WUHU215HW,2013-07-05 00:42:00,
2013-07-04 19:44:00,83.1,58.2,30.04,ESE,113,9.6,17.2,43,0.00,,,0.00,WUHU215HW,2013-07-05 00:44:00,
2013-07-04 19:46:00,83.1,58.2,30.04,SW,225,16.1,17.2,43,0.00,,,0.00,WUHU215HW,2013-07-05 00:46:00,
2013-07-04 19:47:00,83.1,58.2,30.04,SW,225,12.1,17.2,44,0.00,,,0.00,WUHU215HW,2013-07-05 00:47:00,
2013-07-04 19:48:00,83.1,58.2,30.04,SW,225,8.2,16.1,44,0.00,,,0.00,WUHU215HW,2013-07-05 00:48:00,
2013-07-04 19:51:00,82.7,58.2,30.04,South,180,13.4,16.1,44,0.00,,,0.00,WUHU215HW,2013-07-05 00:51:00,
2013-07-04 19:52:00,82.7,58.2,30.04,South,180,13.4,16.1,44,0.00,,,0.00,WUHU215HW,2013-07-05 00:52:00,
2013-07-04 19:53:00,82.7,58.2,30.04,SW,225,23.9,23.9,44,0.00,,,0.00,WUHU215HW,2013-07-05 00:53:00,
2013-07-04 19:55:00,82.7,58.5,30.04,SW,225,23.9,23.9,44,0.00,,,0.00,WUHU215HW,2013-07-05 00:55:00,
2013-07-04 19:56:00,82.5,58.5,30.04,SW,225,23.9,23.9,45,0.00,,,0.00,WUHU215HW,2013-07-05 00:56:00,
2013-07-04 19:58:00,82.5,58.5,30.04,SE,135,7.6,23.9,45,0.00,,,0.00,WUHU215HW,2013-07-05 00:58:00,
2013-07-04 19:59:00,82.5,58.5,30.04,SE,135,7.6,23.9,45,0.00,,,0.00,WUHU215HW,2013-07-05 00:59:00,
2013-07-04 20:01:00,82.2,58.6,30.04,SE,135,8.7,23.9,45,0.00,,,0.00,WUHU215HW,2013-07-05 01:01:00,
2013-07-04 20:03:00,82.2,59.2,30.04,West,270,11.1,23.9,46,0.00,,,0.00,WUHU215HW,2013-07-05 01:03:00,
2013-07-04 20:05:00,82.2,59.2,30.04,West,270,11.1,23.9,46,0.00,,,0.00,WUHU215HW,2013-07-05 01:05:00,
2013-07-04 20:07:00,82.0,59.1,30.04,South,180,4.6,11.1,46,0.00,,,0.00,WUHU215HW,2013-07-05 01:07:00,
2013-07-04 20:08:00,82.0,59.1,30.04,South,180,4.6,11.1,46,0.00,,,0.00,WUHU215HW,2013-07-05 01:08:00,
2013-07-04 20:09:00,81.8,58.9,30.04,SSW,203,6.0,11.1,46,0.00,,,0.00,WUHU215HW,2013-07-05 01:09:00,
2013-07-04 20:10:00,81.8,58.9,30.04,SSW,203,6.0,11.1,46,0.00,,,0.00,WUHU215HW,2013-07-05 01:10:00,
2013-07-04 20:12:00,81.6,59.3,30.04,SSW,203,11.4,11.4,47,0.00,,,0.00,WUHU215HW,2013-07-05 01:12:00,
2013-07-04 20:14:00,81.6,59.3,30.04,SSW,203,11.4,11.4,47,0.00,,,0.00,WUHU215HW,2013-07-05 01:14:00,
2013-07-04 20:15:00,81.5,59.2,30.04,SSW,203,11.4,11.4,47,0.00,,,0.00,WUHU215HW,2013-07-05 01:15:00,
2013-07-04 20:17:00,81.3,59.2,30.04,SE,135,0.0,11.4,47,0.00,,,0.00,WUHU215HW,2013-07-05 01:17:00,
2013-07-04 20:20:00,81.1,58.9,30.04,NNE,23,4.4,11.4,47,0.00,,,0.00,WUHU215HW,2013-07-05 01:20:00,
2013-07-04 20:21:00,81.1,58.9,30.04,NNE,23,4.4,11.4,47,0.00,,,0.00,WUHU215HW,2013-07-05 01:21:00,
2013-07-04 20:24:00,80.9,58.7,30.04,SW,225,0.0,11.4,47,0.00,,,0.00,WUHU215HW,2013-07-05 01:24:00,
2013-07-04 20:25:00,80.9,58.7,30.04,SW,225,0.0,4.4,47,0.00,,,0.00,WUHU215HW,2013-07-05 01:25:00,
2013-07-04 20:27:00,80.9,58.7,30.04,SSE,158,0.0,4.4,47,0.00,,,0.00,WUHU215HW,2013-07-05 01:27:00,
2013-07-04 20:28:00,80.6,59.0,30.04,South,180,0.0,4.4,48,0.00,,,0.00,WUHU215HW,2013-07-05 01:28:00,
2013-07-04 20:29:00,80.6,59.0,30.04,South,180,0.0,4.4,48,0.00,,,0.00,WUHU215HW,2013-07-05 01:29:00,
2013-07-04 20:32:00,80.6,59.0,30.04,South,180,0.0,0.0,48,0.00,,,0.00,WUHU215HW,2013-07-05 01:32:00,
2013-07-04 20:33:00,80.4,58.8,30.04,South,180,0.0,0.0,48,0.00,,,0.00,WUHU215HW,2013-07-05 01:33:00,
2013-07-04 20:34:00,80.4,58.8,30.04,South,180,0.0,0.0,48,0.00,,,0.00,WUHU215HW,2013-07-05 01:34:00,
2013-07-04 20:39:00,79.8,58.7,30.04,SE,135,0.0,0.0,48,0.00,,,0.00,WUHU215HW,2013-07-05 01:39:00,
2013-07-04 20:40:00,79.8,58.7,30.04,SE,135,0.0,0.0,48,0.00,,,0.00,WUHU215HW,2013-07-05 01:40:00,
2013-07-04 20:41:00,79.8,58.7,30.04,SE,135,0.0,0.0,48,0.00,,,0.00,WUHU215HW,2013-07-05 01:41:00,
2013-07-04 20:43:00,79.7,58.7,30.04,SE,135,0.0,0.0,49,0.00,,,0.00,WUHU215HW,2013-07-05 01:43:00,
2013-07-04 20:48:00,79.1,58.3,30.04,SE,135,0.0,0.0,49,0.00,,,0.00,WUHU215HW,2013-07-05 01:48:00,
2013-07-04 20:49:00,79.1,58.3,30.04,SE,135,0.0,0.0,49,0.00,,,0.00,WUHU215HW,2013-07-05 01:49:00,
2013-07-04 20:50:00,78.9,58.8,30.04,SE,135,0.0,0.0,50,0.00,,,0.00,WUHU215HW,2013-07-05 01:50:00,
2013-07-04 20:52:00,78.6,58.8,30.04,SE,135,0.0,0.0,50,0.00,,,0.00,WUHU215HW,2013-07-05 01:52:00,
2013-07-04 20:53:00,78.6,58.8,30.04,SE,135,0.0,0.0,50,0.00,,,0.00,WUHU215HW,2013-07-05 01:53:00,
2013-07-04 20:55:00,78.6,58.8,30.04,SE,135,0.0,0.0,50,0.00,,,0.00,WUHU215HW,2013-07-05 01:55:00,
2013-07-04 20:56:00,78.4,58.8,30.04,SE,135,14.3,14.3,50,0.00,,,0.00,WUHU215HW,2013-07-05 01:56:00,
2013-07-04 21:01:00,78.4,58.8,30.04,SE,135,0.0,14.3,50,0.00,,,0.00,WUHU215HW,2013-07-05 02:01:00,
2013-07-04 21:02:00,78.4,58.8,30.04,SE,135,0.0,14.3,51,0.00,,,0.00,WUHU215HW,2013-07-05 02:02:00,
2013-07-04 21:04:00,78.4,58.8,30.04,SSE,158,0.0,14.3,51,0.00,,,0.00,WUHU215HW,2013-07-05 02:04:00,
2013-07-04 21:06:00,77.7,58.1,30.04,SSE,158,0.0,14.3,51,0.00,,,0.00,WUHU215HW,2013-07-05 02:06:00,
2013-07-04 21:07:00,77.5,58.5,30.04,SE,135,0.0,14.3,52,0.00,,,0.00,WUHU215HW,2013-07-05 02:07:00,
2013-07-04 21:08:00,77.5,58.5,30.04,SE,135,0.0,0.0,52,0.00,,,0.00,WUHU215HW,2013-07-05 02:08:00,
2013-07-04 21:10:00,77.5,58.5,30.04,SE,135,0.0,0.0,52,0.00,,,0.00,WUHU215HW,2013-07-05 02:10:00,
2013-07-04 21:11:00,77.3,58.3,30.04,SSE,158,0.0,0.0,52,0.00,,,0.00,WUHU215HW,2013-07-05 02:11:00,
2013-07-04 21:12:00,77.3,58.3,30.04,SSE,158,0.0,0.0,52,0.00,,,0.00,WUHU215HW,2013-07-05 02:12:00,
2013-07-04 21:14:00,77.1,58.6,30.04,SSE,158,0.0,0.0,53,0.00,,,0.00,WUHU215HW,2013-07-05 02:14:00,
2013-07-04 21:16:00,77.0,58.5,30.04,SSE,158,0.0,0.0,53,0.00,,,0.00,WUHU215HW,2013-07-05 02:16:00,
2013-07-04 21:17:00,77.0,58.5,30.04,SE,135,0.0,0.0,53,0.00,,,0.00,WUHU215HW,2013-07-05 02:17:00,
2013-07-04 21:18:00,77.0,58.5,30.04,SE,135,0.0,0.0,53,0.00,,,0.00,WUHU215HW,2013-07-05 02:18:00,
2013-07-04 21:21:00,76.8,58.5,30.04,SSE,158,0.0,0.0,53,0.00,,,0.00,WUHU215HW,2013-07-05 02:21:00,
2013-07-04 21:22:00,76.6,58.5,30.04,South,180,0.0,0.0,54,0.00,,,0.00,WUHU215HW,2013-07-05 02:22:00,
2013-07-04 21:26:00,76.2,58.3,30.04,SSE,158,0.0,0.0,54,0.00,,,0.00,WUHU215HW,2013-07-05 02:26:00,
2013-07-04 21:27:00,76.2,58.3,30.04,SSE,158,0.0,0.0,54,0.00,,,0.00,WUHU215HW,2013-07-05 02:27:00,
2013-07-04 21:28:00,76.1,58.7,30.04,South,180,0.0,0.0,55,0.00,,,0.00,WUHU215HW,2013-07-05 02:28:00,
2013-07-04 21:29:00,76.1,58.7,30.04,South,180,0.0,0.0,55,0.00,,,0.00,WUHU215HW,2013-07-05 02:29:00,
2013-07-04 21:31:00,76.1,58.7,30.04,South,180,0.0,0.0,55,0.00,,,0.00,WUHU215HW,2013-07-05 02:31:00,
2013-07-04 21:34:00,75.9,58.5,30.04,SE,135,0.0,0.0,55,0.00,,,0.00,WUHU215HW,2013-07-05 02:34:00,
2013-07-04 21:35:00,75.9,58.5,30.04,SE,135,0.0,0.0,55,0.00,,,0.00,WUHU215HW,2013-07-05 02:35:00,
2013-07-04 21:37:00,75.7,58.5,30.04,SSE,158,0.0,0.0,55,0.00,,,0.00,WUHU215HW,2013-07-05 02:37:00,
2013-07-04 21:39:00,75.5,58.5,30.04,SSE,158,0.0,0.0,55,0.00,,,0.00,WUHU215HW,2013-07-05 02:39:00,
2013-07-04 21:41:00,75.5,58.5,30.04,SSE,158,0.0,0.0,55,0.00,,,0.00,WUHU215HW,2013-07-05 02:41:00,
2013-07-04 21:42:00,75.5,58.5,30.04,SSE,158,0.0,0.0,55,0.00,,,0.00,WUHU215HW,2013-07-05 02:42:00,
2013-07-04 21:43:00,75.3,58.0,30.04,SSE,158,0.0,0.0,55,0.00,,,0.00,WUHU215HW,2013-07-05 02:43:00,
2013-07-04 21:45:00,75.3,58.0,30.04,SSE,158,0.0,0.0,56,0.00,,,0.00,WUHU215HW,2013-07-05 02:45:00,
2013-07-04 21:48:00,75.0,58.0,30.04,SSE,158,0.0,0.0,56,0.00,,,0.00,WUHU215HW,2013-07-05 02:48:00,
2013-07-04 21:49:00,75.0,58.0,30.04,SSE,158,10.9,10.9,56,0.00,,,0.00,WUHU215HW,2013-07-05 02:49:00,
2013-07-04 21:50:00,75.0,58.0,30.04,SSE,158,10.9,10.9,56,0.00,,,0.00,WUHU215HW,2013-07-05 02:50:00,
2013-07-04 21:52:00,75.0,58.2,30.04,SSE,158,10.9,10.9,56,0.00,,,0.00,WUHU215HW,2013-07-05 02:52:00,
2013-07-04 21:55:00,74.8,58.0,30.04,SSE,158,10.9,10.9,56,0.00,,,0.00,WUHU215HW,2013-07-05 02:55:00,
2013-07-04 21:56:00,74.8,58.0,30.04,SE,135,0.0,10.9,56,0.00,,,0.00,WUHU215HW,2013-07-05 02:56:00,
2013-07-04 21:57:00,74.8,58.0,30.04,SE,135,0.0,10.9,56,0.00,,,0.00,WUHU215HW,2013-07-05 02:57:00,
2013-07-04 22:00:00,74.6,58.3,30.04,SE,135,0.0,10.9,57,0.00,,,0.00,WUHU215HW,2013-07-05 03:00:00,
2013-07-04 22:03:00,74.4,58.2,30.04,SE,135,0.0,10.9,57,0.00,,,0.00,WUHU215HW,2013-07-05 03:03:00,
2013-07-04 22:05:00,74.4,58.2,30.04,SE,135,0.0,0.0,57,0.00,,,0.00,WUHU215HW,2013-07-05 03:05:00,
2013-07-04 22:06:00,74.4,58.2,30.04,SE,135,0.0,0.0,57,0.00,,,0.00,WUHU215HW,2013-07-05 03:06:00,
2013-07-04 22:07:00,74.3,58.0,30.04,South,180,0.0,0.0,57,0.00,,,0.00,WUHU215HW,2013-07-05 03:07:00,
2013-07-04 22:11:00,74.3,57.8,30.04,SE,135,0.0,0.0,57,0.00,,,0.00,WUHU215HW,2013-07-05 03:11:00,
2013-07-04 22:12:00,74.1,57.8,30.04,SE,135,0.0,0.0,57,0.00,,,0.00,WUHU215HW,2013-07-05 03:12:00,
2013-07-04 22:14:00,74.1,57.8,30.04,SSE,158,0.0,0.0,57,0.00,,,0.00,WUHU215HW,2013-07-05 03:14:00,
2013-07-04 22:16:00,74.1,57.8,30.04,SE,135,0.0,0.0,57,0.00,,,0.00,WUHU215HW,2013-07-05 03:16:00,
2013-07-04 22:18:00,74.1,57.8,30.04,SE,135,0.0,0.0,58,0.00,,,0.00,WUHU215HW,2013-07-05 03:18:00,
2013-07-04 22:19:00,74.1,57.8,30.04,SE,135,0.0,0.0,58,0.00,,,0.00,WUHU215HW,2013-07-05 03:19:00,
2013-07-04 22:20:00,73.9,57.8,30.04,SSE,158,0.0,0.0,58,0.00,,,0.00,WUHU215HW,2013-07-05 03:20:00,
2013-07-04 22:21:00,73.9,57.8,30.04,SSE,158,0.0,0.0,58,0.00,,,0.00,WUHU215HW,2013-07-05 03:21:00,
2013-07-04 22:26:00,73.7,57.9,30.04,NNW,338,0.0,0.0,58,0.00,,,0.00,WUHU215HW,2013-07-05 03:26:00,
2013-07-04 22:27:00,73.7,57.9,30.04,NNW,338,0.0,0.0,58,0.00,,,0.00,WUHU215HW,2013-07-05 03:27:00,
2013-07-04 22:28:00,73.7,57.9,30.04,WNW,293,0.0,0.0,58,0.00,,,0.00,WUHU215HW,2013-07-05 03:28:00,
2013-07-04 22:29:00,73.7,57.9,30.04,WNW,293,0.0,0.0,58,0.00,,,0.00,WUHU215HW,2013-07-05 03:29:00,
2013-07-04 22:31:00,73.5,57.9,30.04,WNW,293,0.0,0.0,58,0.00,,,0.00,WUHU215HW,2013-07-05 03:31:00,
2013-07-04 22:33:00,73.5,57.9,30.04,SE,135,0.0,0.0,59,0.00,,,0.00,WUHU215HW,2013-07-05 03:33:00,
2013-07-04 22:36:00,73.4,58.1,30.04,SE,135,0.0,0.0,59,0.00,,,0.00,WUHU215HW,2013-07-05 03:36:00,
2013-07-04 22:37:00,73.2,57.9,30.04,SE,135,0.0,0.0,59,0.00,,,0.00,WUHU215HW,2013-07-05 03:37:00,
2013-07-04 22:38:00,73.2,57.9,30.04,SE,135,0.0,0.0,59,0.00,,,0.00,WUHU215HW,2013-07-05 03:38:00,
2013-07-04 22:41:00,73.2,57.9,30.04,SSE,158,0.0,0.0,59,0.00,,,0.00,WUHU215HW,2013-07-05 03:41:00,
2013-07-04 22:42:00,73.2,57.9,30.04,SSE,158,0.0,0.0,59,0.00,,,0.00,WUHU215HW,2013-07-05 03:42:00,
2013-07-04 22:43:00,73.0,57.9,30.04,South,180,0.0,0.0,59,0.00,,,0.00,WUHU215HW,2013-07-05 03:43:00,
2013-07-04 22:44:00,73.0,57.9,30.04,South,180,0.0,0.0,59,0.00,,,0.00,WUHU215HW,2013-07-05 03:44:00,
2013-07-04 22:47:00,73.0,57.9,30.04,SE,135,0.0,0.0,60,0.00,,,0.00,WUHU215HW,2013-07-05 03:47:00,
2013-07-04 22:48:00,73.0,57.9,30.04,SE,135,0.0,0.0,60,0.00,,,0.00,WUHU215HW,2013-07-05 03:48:00,
2013-07-04 22:49:00,73.0,57.9,30.04,ESE,113,0.0,0.0,60,0.00,,,0.00,WUHU215HW,2013-07-05 03:49:00,
2013-07-04 22:50:00,72.8,57.9,30.04,ESE,113,0.0,0.0,60,0.00,,,0.00,WUHU215HW,2013-07-05 03:50:00,
2013-07-04 22:51:00,72.8,57.9,30.04,ESE,113,0.0,0.0,60,0.00,,,0.00,WUHU215HW,2013-07-05 03:51:00,
2013-07-04 22:54:00,72.6,57.9,30.04,ESE,113,0.0,0.0,60,0.00,,,0.00,WUHU215HW,2013-07-05 03:54:00,
2013-07-04 22:55:00,72.6,57.9,30.04,ESE,113,0.0,0.0,60,0.00,,,0.00,WUHU215HW,2013-07-05 03:55:00,
2013-07-04 22:56:00,72.5,57.9,30.04,ESE,113,0.0,0.0,60,0.00,,,0.00,WUHU215HW,2013-07-05 03:56:00,
2013-07-04 23:00:00,72.3,57.6,30.04,SSE,158,0.0,0.0,60,0.00,,,0.00,WUHU215HW,2013-07-05 04:00:00,
2013-07-04 23:01:00,72.3,57.6,30.04,SSE,158,0.0,0.0,60,0.00,,,0.00,WUHU215HW,2013-07-05 04:01:00,
2013-07-04 23:03:00,72.3,58.1,30.04,SSW,203,0.0,0.0,61,0.00,,,0.00,WUHU215HW,2013-07-05 04:03:00,
2013-07-04 23:06:00,72.3,58.1,30.04,SE,135,0.0,0.0,61,0.00,,,0.00,WUHU215HW,2013-07-05 04:06:00,
2013-07-04 23:07:00,72.3,58.1,30.04,SSE,158,0.0,0.0,61,0.00,,,0.00,WUHU215HW,2013-07-05 04:07:00,
2013-07-04 23:08:00,72.3,58.1,30.04,SSE,158,0.0,0.0,61,0.00,,,0.00,WUHU215HW,2013-07-05 04:08:00,
2013-07-04 23:11:00,72.1,57.9,30.04,SSE,158,0.0,0.0,61,0.00,,,0.00,WUHU215HW,2013-07-05 04:11:00,
2013-07-04 23:13:00,72.1,57.9,30.04,SSW,203,0.0,0.0,61,0.00,,,0.00,WUHU215HW,2013-07-05 04:13:00,
2013-07-04 23:15:00,72.1,57.9,30.04,SSW,203,0.0,0.0,61,0.00,,,0.00,WUHU215HW,2013-07-05 04:15:00,
2013-07-04 23:18:00,72.1,57.9,30.04,SSE,158,0.0,0.0,61,0.00,,,0.00,WUHU215HW,2013-07-05 04:18:00,
2013-07-04 23:19:00,71.9,57.7,30.04,SSE,158,0.0,0.0,61,0.00,,,0.00,WUHU215HW,2013-07-05 04:19:00,
2013-07-04 23:20:00,71.9,57.7,30.04,SSE,158,0.0,0.0,61,0.00,,,0.00,WUHU215HW,2013-07-05 04:20:00,
2013-07-04 23:21:00,71.9,57.7,30.04,SSE,158,0.0,0.0,61,0.00,,,0.00,WUHU215HW,2013-07-05 04:21:00,
2013-07-04 23:23:00,71.9,57.7,30.04,SSE,158,0.0,0.0,61,0.00,,,0.00,WUHU215HW,2013-07-05 04:23:00,
2013-07-04 23:24:00,71.7,57.6,30.04,SSE,158,0.0,0.0,61,0.00,,,0.00,WUHU215HW,2013-07-05 04:24:00,
2013-07-04 23:28:00,71.7,57.6,30.04,SW,225,0.0,0.0,61,0.00,,,0.00,WUHU215HW,2013-07-05 04:28:00,
2013-07-04 23:29:00,71.7,57.6,30.04,SW,225,0.0,0.0,61,0.00,,,0.00,WUHU215HW,2013-07-05 04:29:00,
2013-07-04 23:33:00,71.7,57.6,30.04,SSE,158,3.1,3.1,61,0.00,,,0.00,WUHU215HW,2013-07-05 04:33:00,
2013-07-04 23:35:00,71.6,57.4,30.04,SSE,158,3.1,3.1,61,0.00,,,0.00,WUHU215HW,2013-07-05 04:35:00,
2013-07-04 23:36:00,71.6,57.4,30.04,South,180,0.0,3.1,61,0.00,,,0.00,WUHU215HW,2013-07-05 04:36:00,
2013-07-04 23:37:00,71.6,57.4,30.04,South,180,0.0,3.1,61,0.00,,,0.00,WUHU215HW,2013-07-05 04:37:00,
2013-07-04 23:40:00,71.4,57.2,30.04,South,180,0.0,3.1,61,0.00,,,0.00,WUHU215HW,2013-07-05 04:40:00,
2013-07-04 23:41:00,71.4,57.2,30.04,SSE,158,0.0,3.1,61,0.00,,,0.00,WUHU215HW,2013-07-05 04:41:00,
2013-07-04 23:42:00,71.4,57.2,30.04,SSE,158,0.0,3.1,61,0.00,,,0.00,WUHU215HW,2013-07-05 04:42:00,
2013-07-04 23:44:00,71.4,57.2,30.04,SSE,158,0.0,0.0,61,0.00,,,0.00,WUHU215HW,2013-07-05 04:44:00,
2013-07-04 23:46:00,71.4,57.2,30.04,SSE,158,0.0,0.0,61,0.00,,,0.00,WUHU215HW,2013-07-05 04:46:00,
2013-07-04 23:47:00,71.4,57.2,30.04,SSW,203,0.0,0.0,61,0.00,,,0.00,WUHU215HW,2013-07-05 04:47:00,
2013-07-04 23:48:00,71.4,57.2,30.04,SSW,203,0.0,0.0,61,0.00,,,0.00,WUHU215HW,2013-07-05 04:48:00,
2013-07-04 23:49:00,71.4,57.2,30.04,SSW,203,0.0,0.0,61,0.00,,,0.00,WUHU215HW,2013-07-05 04:49:00,
2013-07-04 23:51:00,71.4,57.2,30.04,SSW,203,0.0,0.0,61,0.00,,,0.00,WUHU215HW,2013-07-05 04:51:00,
2013-07-04 23:53:00,71.4,57.2,30.04,SSW,203,5.8,5.8,61,0.00,,,0.00,WUHU215HW,2013-07-05 04:53:00,
2013-07-04 23:54:00,71.4,57.2,30.04,SSW,203,5.8,5.8,61,0.00,,,0.00,WUHU215HW,2013-07-05 04:54:00,
2013-07-04 23:55:00,71.4,57.2,30.04,SE,135,0.0,5.8,61,0.00,,,0.00,WUHU215HW,2013-07-05 04:55:00,
2013-07-04 23:56:00,71.4,57.2,30.04,NE,45,0.0,5.8,61,0.00,,,0.00,WUHU215HW,2013-07-05 04:56:00,
2013-07-04 23:57:00,71.4,57.2,30.04,NE,45,0.0,5.8,61,0.00,,,0.00,WUHU215HW,2013-07-05 04:57:00,
2013-07-04 23:58:00,71.4,57.2,30.04,WNW,293,0.0,5.8,61,0.00,,,0.00,WUHU215HW,2013-07-05 04:58:00,